Wetterdaten: Dienstag, 20.12.2022
Datum Zeit Temp. Aussen Temp. o. S. Temp +5cm Feuchte Auss Luftdruck Regen Sonnenschein Regendauer Solar Windben Empfang
20.12.2022 00:00 10,2 C 10,0 C 5,6 C 90 % 1016,4 hPa 0,0 l/m 0 min 0 min 0 W/m 16,1 km/h (3 Bft) 97,83 %
20.12.2022 00:02 10,3 C 10,0 C 5,6 C 90 % 1016,3 hPa 0,0 l/m 0 min 0 min 0 W/m 12,9 km/h (3 Bft) 97,50 %
20.12.2022 00:04 10,3 C 10,0 C 5,6 C 90 % 1016,2 hPa 0,0 l/m 0 min 0 min 0 W/m 12,9 km/h (3 Bft) 97,87 %
20.12.2022 00:08 10,3 C 10,0 C 5,6 C 90 % 1016,1 hPa 0,0 l/m 0 min 0 min 0 W/m 16,1 km/h (3 Bft) 95,74 %
20.12.2022 00:10 10,3 C 10,0 C 5,6 C 90 % 1016,1 hPa 0,0 l/m 0 min 0 min 0 W/m 12,9 km/h (3 Bft) 95,74 %
20.12.2022 00:12 10,3 C 9,4 C 5,6 C 90 % 1016,1 hPa 0,0 l/m 0 min 0 min 0 W/m 6,4 km/h (2 Bft) 97,83 %
20.12.2022 00:14 10,3 C 9,4 C 5,6 C 89 % 1016,0 hPa 0,0 l/m 0 min 0 min 0 W/m 12,9 km/h (3 Bft) 97,87 %
20.12.2022 00:16 10,3 C 9,4 C 5,6 C 89 % 1016,0 hPa 0,0 l/m 0 min 0 min 0 W/m 6,4 km/h (2 Bft) 97,87 %
20.12.2022 00:18 10,3 C 9,4 C 5,6 C 89 % 1015,9 hPa 0,0 l/m 0 min 0 min 0 W/m 6,4 km/h (2 Bft) 97,87 %
20.12.2022 00:20 10,3 C 9,4 C 5,6 C 89 % 1015,9 hPa 0,0 l/m 0 min 0 min 0 W/m 6,4 km/h (2 Bft) 97,87 %
20.12.2022 00:22 10,2 C 9,4 C 5,6 C 89 % 1015,9 hPa 0,0 l/m 0 min 0 min 0 W/m 9,7 km/h (2 Bft) 100,00 %
20.12.2022 00:24 10,2 C 9,4 C 5,6 C 89 % 1015,8 hPa 0,0 l/m 0 min 0 min 0 W/m 6,4 km/h (2 Bft) 95,65 %
20.12.2022 00:26 10,2 C 9,4 C 5,6 C 89 % 1015,9 hPa 0,0 l/m 0 min 0 min 0 W/m 6,4 km/h (2 Bft) 100,00 %
20.12.2022 00:28 10,2 C 9,4 C 5,0 C 89 % 1015,9 hPa 0,0 l/m 0 min 0 min 0 W/m 6,4 km/h (2 Bft) 95,74 %
20.12.2022 00:30 10,2 C 9,4 C 5,6 C 88 % 1015,8 hPa 0,0 l/m 0 min 0 min 0 W/m 6,4 km/h (2 Bft) 95,74 %
20.12.2022 00:32 10,2 C 9,4 C 5,0 C 88 % 1015,9 hPa 0,0 l/m 0 min 0 min 0 W/m 6,4 km/h (2 Bft) 95,74 %
20.12.2022 00:34 10,1 C 9,4 C 5,0 C 88 % 1015,8 hPa 0,0 l/m 0 min 0 min 0 W/m 6,4 km/h (2 Bft) 97,87 %
20.12.2022 00:36 10,1 C 9,4 C 5,0 C 88 % 1015,8 hPa 0,0 l/m 0 min 0 min 0 W/m 9,7 km/h (2 Bft) 93,48 %
20.12.2022 00:38 10,1 C 9,4 C 5,0 C 89 % 1015,8 hPa 0,0 l/m 0 min 0 min 0 W/m 6,4 km/h (2 Bft) 95,74 %
20.12.2022 00:40 10,1 C 9,4 C 5,0 C 89 % 1015,9 hPa 0,0 l/m 0 min 0 min 0 W/m 6,4 km/h (2 Bft) 95,74 %
20.12.2022 00:42 10,1 C 9,4 C 5,0 C 89 % 1015,9 hPa 0,0 l/m 0 min 0 min 0 W/m 6,4 km/h (2 Bft) 95,74 %
20.12.2022 00:44 10,1 C 9,4 C 5,0 C 88 % 1015,9 hPa 0,0 l/m 0 min 0 min 0 W/m 9,7 km/h (2 Bft) 95,74 %
20.12.2022 00:46 10,1 C 9,4 C 5,0 C 89 % 1015,9 hPa 0,0 l/m 0 min 0 min 0 W/m 6,4 km/h (2 Bft) 93,62 %
20.12.2022 00:48 10,2 C 10,0 C 5,6 C 88 % 1015,8 hPa 0,0 l/m 0 min 0 min 0 W/m 6,4 km/h (2 Bft) 95,65 %
20.12.2022 00:50 10,2 C 10,0 C 5,6 C 88 % 1015,9 hPa 0,0 l/m 0 min 0 min 0 W/m 9,7 km/h (2 Bft) 93,62 %
20.12.2022 00:52 10,2 C 10,0 C 5,6 C 88 % 1015,9 hPa 0,0 l/m 0 min 0 min 0 W/m 6,4 km/h (2 Bft) 93,62 %
20.12.2022 00:54 10,3 C 10,0 C 5,6 C 88 % 1015,9 hPa 0,0 l/m 0 min 0 min 0 W/m 12,9 km/h (3 Bft) 95,74 %
20.12.2022 00:56 10,3 C 10,0 C 5,6 C 88 % 1015,9 hPa 0,0 l/m 0 min 0 min 0 W/m 6,4 km/h (2 Bft) 95,74 %
20.12.2022 00:58 10,3 C 10,0 C 5,6 C 88 % 1015,9 hPa 0,0 l/m 0 min 0 min 0 W/m 6,4 km/h (2 Bft) 93,62 %
20.12.2022 01:00 10,3 C 10,0 C 5,0 C 88 % 1015,9 hPa 0,0 l/m 0 min 0 min 0 W/m 3,2 km/h (1 Bft) 47,73 %
20.12.2022 01:02 10,4 C 10,0 C 5,6 C 87 % 1015,9 hPa 0,0 l/m 0 min 0 min 0 W/m 3,2 km/h (1 Bft) 95,00 %
20.12.2022 01:04 10,4 C 10,0 C 5,6 C 87 % 1015,9 hPa 0,0 l/m 0 min 0 min 0 W/m 3,2 km/h (1 Bft) 93,62 %
20.12.2022 01:06 10,4 C 10,0 C 5,6 C 87 % 1015,9 hPa 0,0 l/m 0 min 0 min 0 W/m 6,4 km/h (2 Bft) 95,74 %
20.12.2022 01:08 10,4 C 10,0 C 5,6 C 87 % 1015,9 hPa 0,0 l/m 0 min 0 min 0 W/m 6,4 km/h (2 Bft) 93,62 %
20.12.2022 01:10 10,4 C 10,0 C 5,6 C 87 % 1016,0 hPa 0,0 l/m 0 min 0 min 0 W/m 3,2 km/h (1 Bft) 93,62 %
20.12.2022 01:12 10,4 C 10,0 C 5,0 C 87 % 1015,9 hPa 0,0 l/m 0 min 0 min 0 W/m 3,2 km/h (1 Bft) 97,87 %
20.12.2022 01:14 10,4 C 10,0 C 5,6 C 87 % 1015,9 hPa 0,0 l/m 0 min 0 min 0 W/m 3,2 km/h (1 Bft) 95,65 %
20.12.2022 01:16 10,4 C 9,4 C 5,0 C 86 % 1015,9 hPa 0,0 l/m 0 min 0 min 0 W/m 3,2 km/h (1 Bft) 95,74 %
20.12.2022 01:18 10,4 C 9,4 C 5,0 C 86 % 1015,8 hPa 0,0 l/m 0 min 0 min 0 W/m 3,2 km/h (1 Bft) 100,00 %
20.12.2022 01:20 10,4 C 9,4 C 5,0 C 86 % 1015,8 hPa 0,0 l/m 0 min 0 min 0 W/m 3,2 km/h (1 Bft) 97,87 %
20.12.2022 01:22 10,4 C 9,4 C 5,0 C 86 % 1015,8 hPa 0,0 l/m 0 min 0 min 0 W/m 6,4 km/h (2 Bft) 97,87 %
20.12.2022 01:24 10,3 C 8,9 C 5,0 C 86 % 1015,7 hPa 0,0 l/m 0 min 0 min 0 W/m 6,4 km/h (2 Bft) 97,87 %
20.12.2022 01:26 10,3 C 8,9 C 5,0 C 86 % 1015,7 hPa 0,0 l/m 0 min 0 min 0 W/m 3,2 km/h (1 Bft) 100,00 %
20.12.2022 01:28 10,3 C 8,9 C 5,0 C 86 % 1015,6 hPa 0,0 l/m 0 min 0 min 0 W/m 6,4 km/h (2 Bft) 97,87 %
20.12.2022 01:30 10,3 C 8,9 C 5,0 C 86 % 1015,6 hPa 0,0 l/m 0 min 0 min 0 W/m 6,4 km/h (2 Bft) 97,87 %
20.12.2022 01:32 10,2 C 8,9 C 5,0 C 86 % 1015,6 hPa 0,0 l/m 0 min 0 min 0 W/m 6,4 km/h (2 Bft) 97,87 %
20.12.2022 01:34 10,2 C 8,9 C 5,0 C 86 % 1015,6 hPa 0,0 l/m 0 min 0 min 0 W/m 3,2 km/h (1 Bft) 97,87 %
20.12.2022 01:36 10,1 C 8,9 C 4,4 C 86 % 1015,6 hPa 0,0 l/m 0 min 0 min 0 W/m 6,4 km/h (2 Bft) 100,00 %
20.12.2022 01:38 10,1 C 8,9 C 4,4 C 86 % 1015,6 hPa 0,0 l/m 0 min 0 min 0 W/m 6,4 km/h (2 Bft) 100,00 %
20.12.2022 01:40 10,0 C 8,3 C 4,4 C 86 % 1015,6 hPa 0,0 l/m 0 min 0 min 0 W/m 3,2 km/h (1 Bft) 97,83 %
20.12.2022 01:42 9,9 C 8,9 C 4,4 C 86 % 1015,6 hPa 0,0 l/m 0 min 0 min 0 W/m 12,9 km/h (3 Bft) 100,00 %
20.12.2022 01:44 9,9 C 8,3 C 4,4 C 86 % 1015,6 hPa 0,0 l/m 0 min 0 min 0 W/m 6,4 km/h (2 Bft) 100,00 %
20.12.2022 01:46 9,9 C 8,9 C 5,0 C 86 % 1015,6 hPa 0,0 l/m 0 min 0 min 0 W/m 6,4 km/h (2 Bft) 97,87 %
20.12.2022 01:48 9,8 C 8,9 C 4,4 C 86 % 1015,6 hPa 0,0 l/m 0 min 0 min 0 W/m 6,4 km/h (2 Bft) 95,74 %
20.12.2022 01:50 9,8 C 8,9 C 4,4 C 86 % 1015,6 hPa 0,0 l/m 0 min 0 min 0 W/m 6,4 km/h (2 Bft) 100,00 %
20.12.2022 01:52 9,8 C 8,9 C 5,0 C 87 % 1015,5 hPa 0,0 l/m 0 min 0 min 0 W/m 12,9 km/h (3 Bft) 97,83 %
20.12.2022 01:54 9,7 C 8,9 C 5,0 C 87 % 1015,5 hPa 0,0 l/m 0 min 0 min 0 W/m 12,9 km/h (3 Bft) 97,87 %
20.12.2022 01:56 9,7 C 8,9 C 5,0 C 87 % 1015,6 hPa 0,0 l/m 0 min 0 min 0 W/m 3,2 km/h (1 Bft) 100,00 %
20.12.2022 01:58 9,7 C 8,9 C 4,4 C 87 % 1015,6 hPa 0,0 l/m 0 min 0 min 0 W/m 12,9 km/h (3 Bft) 97,87 %
20.12.2022 02:00 9,7 C 8,9 C 5,0 C 87 % 1015,6 hPa 0,0 l/m 0 min 0 min 0 W/m 6,4 km/h (2 Bft) 100,00 %
20.12.2022 02:02 9,6 C 8,9 C 5,0 C 87 % 1015,6 hPa 0,0 l/m 0 min 0 min 0 W/m 6,4 km/h (2 Bft) 100,00 %
20.12.2022 02:04 9,6 C 8,9 C 5,0 C 87 % 1015,6 hPa 0,0 l/m 0 min 0 min 0 W/m 6,4 km/h (2 Bft) 97,83 %
20.12.2022 02:06 9,6 C 8,9 C 5,0 C 87 % 1015,5 hPa 0,0 l/m 0 min 0 min 0 W/m 6,4 km/h (2 Bft) 100,00 %
20.12.2022 02:08 9,6 C 8,9 C 5,0 C 87 % 1015,4 hPa 0,0 l/m 0 min 0 min 0 W/m 6,4 km/h (2 Bft) 97,87 %
20.12.2022 02:10 9,6 C 8,9 C 5,0 C 87 % 1015,4 hPa 0,0 l/m 0 min 0 min 0 W/m 6,4 km/h (2 Bft) 97,87 %
20.12.2022 02:17 9,6 C 8,9 C 5,0 C 87 % 1015,4 hPa 0,0 l/m 0 min 0 min 0 W/m 6,4 km/h (2 Bft) 95,71 %
20.12.2022 02:18 9,6 C 8,9 C 5,0 C 87 % 1015,4 hPa 0,0 l/m 0 min 0 min 0 W/m 6,4 km/h (2 Bft) 95,65 %
20.12.2022 02:20 9,6 C 8,9 C 5,0 C 87 % 1015,4 hPa 0,0 l/m 0 min 0 min 0 W/m 12,9 km/h (3 Bft) 100,00 %
20.12.2022 02:22 9,6 C 8,9 C 5,0 C 87 % 1015,4 hPa 0,0 l/m 0 min 0 min 0 W/m 6,4 km/h (2 Bft) 100,00 %
20.12.2022 02:24 9,6 C 8,9 C 5,0 C 87 % 1015,4 hPa 0,0 l/m 0 min 0 min 0 W/m 12,9 km/h (3 Bft) 95,65 %
20.12.2022 02:26 9,7 C 8,9 C 5,0 C 87 % 1015,4 hPa 0,0 l/m 0 min 0 min 0 W/m 12,9 km/h (3 Bft) 97,87 %
20.12.2022 02:28 9,7 C 8,9 C 5,0 C 87 % 1015,4 hPa 0,0 l/m 0 min 0 min 0 W/m 12,9 km/h (3 Bft) 97,87 %
20.12.2022 02:30 9,7 C 8,9 C 5,0 C 87 % 1015,4 hPa 0,0 l/m 0 min 0 min 0 W/m 6,4 km/h (2 Bft) 97,87 %
20.12.2022 02:32 9,7 C 8,9 C 5,0 C 87 % 1015,3 hPa 0,0 l/m 0 min 0 min 0 W/m 12,9 km/h (3 Bft) 97,87 %
20.12.2022 02:34 9,7 C 8,9 C 5,0 C 87 % 1015,3 hPa 0,0 l/m 0 min 0 min 0 W/m 6,4 km/h (2 Bft) 95,74 %
20.12.2022 02:36 9,7 C 8,9 C 5,0 C 87 % 1015,3 hPa 0,0 l/m 0 min 0 min 0 W/m 6,4 km/h (2 Bft) 95,74 %
20.12.2022 02:38 9,7 C 8,9 C 5,0 C 87 % 1015,4 hPa 0,0 l/m 0 min 0 min 0 W/m 6,4 km/h (2 Bft) 95,65 %
20.12.2022 02:40 9,7 C 8,9 C 5,0 C 87 % 1015,3 hPa 0,0 l/m 0 min 2 min 0 W/m 6,4 km/h (2 Bft) 93,62 %
20.12.2022 02:42 9,7 C 8,9 C 5,0 C 87 % 1015,4 hPa 0,0 l/m 0 min 2 min 0 W/m 6,4 km/h (2 Bft) 91,49 %
20.12.2022 02:44 9,7 C 8,9 C 5,0 C 87 % 1015,3 hPa 0,0 l/m 0 min 0 min 0 W/m 3,2 km/h (1 Bft) 95,74 %
20.12.2022 02:46 9,7 C 8,9 C 5,0 C 87 % 1015,3 hPa 0,0 l/m 0 min 0 min 0 W/m 3,2 km/h (1 Bft) 95,74 %
20.12.2022 02:48 9,7 C 8,9 C 5,0 C 87 % 1015,3 hPa 0,0 l/m 0 min 0 min 0 W/m 12,9 km/h (3 Bft) 95,74 %
20.12.2022 02:50 9,7 C 8,9 C 5,0 C 87 % 1015,3 hPa 0,0 l/m 0 min 0 min 0 W/m 6,4 km/h (2 Bft) 95,65 %
20.12.2022 02:52 9,7 C 8,9 C 4,4 C 87 % 1015,3 hPa 0,0 l/m 0 min 0 min 0 W/m 6,4 km/h (2 Bft) 97,87 %
20.12.2022 02:54 9,7 C 8,9 C 4,4 C 87 % 1015,3 hPa 0,0 l/m 0 min 0 min 0 W/m 12,9 km/h (3 Bft) 95,74 %
20.12.2022 02:56 9,7 C 8,9 C 4,4 C 87 % 1015,2 hPa 0,0 l/m 0 min 0 min 0 W/m 12,9 km/h (3 Bft) 95,74 %
20.12.2022 02:58 9,7 C 8,9 C 4,4 C 87 % 1015,2 hPa 0,0 l/m 0 min 0 min 0 W/m 6,4 km/h (2 Bft) 93,62 %
20.12.2022 03:00 9,7 C 8,9 C 5,0 C 87 % 1015,2 hPa 0,0 l/m 0 min 0 min 0 W/m 12,9 km/h (3 Bft) 95,74 %
20.12.2022 03:02 9,7 C 8,9 C 5,0 C 87 % 1015,2 hPa 0,0 l/m 0 min 0 min 0 W/m 12,9 km/h (3 Bft) 97,83 %
20.12.2022 03:04 9,7 C 8,9 C 4,4 C 87 % 1015,1 hPa 0,0 l/m 0 min 0 min 0 W/m 6,4 km/h (2 Bft) 95,74 %
20.12.2022 03:06 9,7 C 8,9 C 5,0 C 87 % 1015,1 hPa 0,0 l/m 0 min 0 min 0 W/m 12,9 km/h (3 Bft) 95,74 %
20.12.2022 03:08 9,7 C 9,4 C 5,0 C 88 % 1015,1 hPa 0,0 l/m 0 min 0 min 0 W/m 6,4 km/h (2 Bft) 97,87 %
20.12.2022 03:10 9,7 C 9,4 C 5,0 C 88 % 1015,1 hPa 0,0 l/m 0 min 0 min 0 W/m 9,7 km/h (2 Bft) 97,87 %
20.12.2022 03:12 9,7 C 9,4 C 5,0 C 88 % 1015,1 hPa 0,0 l/m 0 min 0 min 0 W/m 12,9 km/h (3 Bft) 100,00 %
20.12.2022 03:14 9,8 C 9,4 C 5,0 C 88 % 1015,1 hPa 0,0 l/m 0 min 0 min 0 W/m 12,9 km/h (3 Bft) 97,87 %
20.12.2022 03:16 9,8 C 9,4 C 5,0 C 88 % 1015,1 hPa 0,0 l/m 0 min 0 min 0 W/m 6,4 km/h (2 Bft) 95,65 %
20.12.2022 03:18 9,8 C 9,4 C 5,0 C 88 % 1015,1 hPa 0,0 l/m 0 min 0 min 0 W/m 12,9 km/h (3 Bft) 95,74 %
20.12.2022 03:20 9,8 C 9,4 C 5,0 C 88 % 1015,0 hPa 0,0 l/m 0 min 0 min 0 W/m 9,7 km/h (2 Bft) 97,87 %
20.12.2022 03:22 9,9 C 9,4 C 5,6 C 88 % 1015,0 hPa 0,0 l/m 0 min 0 min 0 W/m 12,9 km/h (3 Bft) 97,87 %
20.12.2022 03:24 9,9 C 9,4 C 5,0 C 88 % 1015,0 hPa 0,0 l/m 0 min 0 min 0 W/m 9,7 km/h (2 Bft) 95,74 %
20.12.2022 03:26 9,9 C 9,4 C 5,0 C 88 % 1015,0 hPa 0,0 l/m 0 min 0 min 0 W/m 12,9 km/h (3 Bft) 97,87 %
20.12.2022 03:28 10,0 C 9,4 C 5,6 C 88 % 1015,0 hPa 0,0 l/m 0 min 0 min 0 W/m 12,9 km/h (3 Bft) 95,74 %
20.12.2022 03:30 10,1 C 10,0 C 5,6 C 87 % 1015,0 hPa 0,0 l/m 0 min 0 min 0 W/m 12,9 km/h (3 Bft) 97,87 %
20.12.2022 03:32 10,1 C 10,0 C 5,6 C 87 % 1014,9 hPa 0,0 l/m 0 min 2 min 0 W/m 12,9 km/h (3 Bft) 97,83 %
20.12.2022 03:34 10,1 C 10,0 C 5,0 C 87 % 1014,9 hPa 0,0 l/m 0 min 2 min 0 W/m 12,9 km/h (3 Bft) 97,87 %
20.12.2022 03:36 10,1 C 9,4 C 5,0 C 87 % 1014,9 hPa 0,0 l/m 0 min 2 min 0 W/m 6,4 km/h (2 Bft) 94,74 %
20.12.2022 03:38 10,2 C 9,4 C 5,0 C 87 % 1015,0 hPa 0,0 l/m 0 min 2 min 0 W/m 16,1 km/h (3 Bft) 97,87 %
20.12.2022 03:40 10,2 C 9,4 C 5,0 C 87 % 1015,1 hPa 0,0 l/m 0 min 0 min 0 W/m 12,9 km/h (3 Bft) 97,87 %
20.12.2022 03:42 10,2 C 9,4 C 4,4 C 87 % 1015,2 hPa 0,0 l/m 0 min 0 min 0 W/m 6,4 km/h (2 Bft) 95,74 %
20.12.2022 03:44 10,2 C 9,4 C 4,4 C 87 % 1015,2 hPa 0,0 l/m 0 min 0 min 0 W/m 6,4 km/h (2 Bft) 97,83 %
20.12.2022 03:46 10,2 C 9,4 C 4,4 C 87 % 1015,2 hPa 0,0 l/m 0 min 0 min 0 W/m 3,2 km/h (1 Bft) 97,87 %
20.12.2022 03:48 10,2 C 9,4 C 4,4 C 87 % 1015,1 hPa 0,0 l/m 0 min 0 min 0 W/m 12,9 km/h (3 Bft) 97,87 %
20.12.2022 03:50 10,2 C 9,4 C 4,4 C 87 % 1015,1 hPa 0,0 l/m 0 min 2 min 0 W/m 12,9 km/h (3 Bft) 97,87 %
20.12.2022 03:52 10,2 C 8,9 C 4,4 C 87 % 1015,1 hPa 0,0 l/m 0 min 2 min 0 W/m 12,9 km/h (3 Bft) 97,87 %
20.12.2022 03:54 10,1 C 8,9 C 4,4 C 87 % 1015,0 hPa 0,0 l/m 0 min 2 min 0 W/m 12,9 km/h (3 Bft) 97,87 %
20.12.2022 03:56 10,1 C 8,9 C 4,4 C 87 % 1015,1 hPa 0,2 l/m 0 min 2 min 0 W/m 16,1 km/h (3 Bft) 95,74 %
20.12.2022 03:58 10,1 C 8,9 C 4,4 C 88 % 1015,1 hPa 0,0 l/m 0 min 2 min 0 W/m 9,7 km/h (2 Bft) 97,83 %
20.12.2022 04:00 10,1 C 8,9 C 4,4 C 88 % 1015,2 hPa 0,0 l/m 0 min 2 min 0 W/m 12,9 km/h (3 Bft) 97,87 %
20.12.2022 04:02 10,1 C 8,9 C 4,4 C 88 % 1015,1 hPa 0,0 l/m 0 min 2 min 0 W/m 12,9 km/h (3 Bft) 97,87 %
20.12.2022 04:04 10,1 C 8,9 C 4,4 C 89 % 1015,1 hPa 0,0 l/m 0 min 2 min 0 W/m 16,1 km/h (3 Bft) 100,00 %
20.12.2022 04:06 10,1 C 8,9 C 4,4 C 89 % 1015,1 hPa 0,0 l/m 0 min 2 min 0 W/m 16,1 km/h (3 Bft) 100,00 %
20.12.2022 04:08 10,1 C 8,9 C 4,4 C 89 % 1015,1 hPa 0,2 l/m 0 min 2 min 0 W/m 12,9 km/h (3 Bft) 100,00 %
20.12.2022 04:10 10,1 C 8,9 C 4,4 C 89 % 1015,1 hPa 0,0 l/m 0 min 2 min 0 W/m 12,9 km/h (3 Bft) 100,00 %
20.12.2022 04:12 10,1 C 8,9 C 4,4 C 89 % 1015,1 hPa 0,0 l/m 0 min 2 min 0 W/m 16,1 km/h (3 Bft) 100,00 %
20.12.2022 04:14 10,1 C 8,9 C 4,4 C 89 % 1015,1 hPa 0,0 l/m 0 min 2 min 0 W/m 16,1 km/h (3 Bft) 100,00 %
20.12.2022 04:16 10,1 C 8,9 C 4,4 C 90 % 1015,0 hPa 0,0 l/m 0 min 2 min 0 W/m 16,1 km/h (3 Bft) 100,00 %
20.12.2022 04:18 10,1 C 8,9 C 4,4 C 90 % 1015,0 hPa 0,0 l/m 0 min 2 min 0 W/m 9,7 km/h (2 Bft) 100,00 %
20.12.2022 04:20 10,0 C 8,9 C 4,4 C 90 % 1015,0 hPa 0,0 l/m 0 min 2 min 0 W/m 9,7 km/h (2 Bft) 100,00 %
20.12.2022 04:22 10,0 C 8,9 C 4,4 C 90 % 1015,0 hPa 0,0 l/m 0 min 2 min 0 W/m 16,1 km/h (3 Bft) 100,00 %
20.12.2022 04:24 10,0 C 8,9 C 4,4 C 90 % 1015,0 hPa 0,0 l/m 0 min 0 min 0 W/m 16,1 km/h (3 Bft) 100,00 %
20.12.2022 04:26 9,9 C 9,4 C 4,4 C 90 % 1015,0 hPa 0,0 l/m 0 min 0 min 0 W/m 16,1 km/h (3 Bft) 100,00 %
20.12.2022 04:28 9,9 C 8,9 C 4,4 C 90 % 1015,0 hPa 0,0 l/m 0 min 0 min 0 W/m 16,1 km/h (3 Bft) 100,00 %
20.12.2022 04:30 9,9 C 8,9 C 4,4 C 90 % 1014,9 hPa 0,0 l/m 0 min 0 min 0 W/m 12,9 km/h (3 Bft) 97,87 %
20.12.2022 04:32 9,9 C 8,9 C 4,4 C 90 % 1014,9 hPa 0,0 l/m 0 min 0 min 0 W/m 12,9 km/h (3 Bft) 97,87 %
20.12.2022 04:34 9,9 C 8,9 C 4,4 C 90 % 1014,9 hPa 0,0 l/m 0 min 0 min 0 W/m 9,7 km/h (2 Bft) 100,00 %
20.12.2022 04:36 9,9 C 8,9 C 4,4 C 90 % 1014,9 hPa 0,0 l/m 0 min 0 min 0 W/m 12,9 km/h (3 Bft) 97,83 %
20.12.2022 04:38 9,8 C 8,9 C 4,4 C 90 % 1014,9 hPa 0,0 l/m 0 min 0 min 0 W/m 12,9 km/h (3 Bft) 97,96 %
20.12.2022 04:40 9,8 C 8,9 C 4,4 C 90 % 1014,9 hPa 0,0 l/m 0 min 0 min 0 W/m 9,7 km/h (2 Bft) 95,74 %
20.12.2022 04:42 9,8 C 8,3 C 4,4 C 90 % 1015,0 hPa 0,0 l/m 0 min 0 min 0 W/m 16,1 km/h (3 Bft) 95,74 %
20.12.2022 04:44 9,7 C 8,3 C 4,4 C 90 % 1015,0 hPa 0,0 l/m 0 min 2 min 0 W/m 12,9 km/h (3 Bft) 97,87 %
20.12.2022 04:46 9,7 C 8,3 C 4,4 C 90 % 1015,0 hPa 0,0 l/m 0 min 2 min 0 W/m 12,9 km/h (3 Bft) 95,65 %
20.12.2022 04:48 9,6 C 8,3 C 4,4 C 90 % 1015,0 hPa 0,0 l/m 0 min 0 min 0 W/m 16,1 km/h (3 Bft) 97,87 %
20.12.2022 04:50 9,6 C 8,3 C 4,4 C 90 % 1015,0 hPa 0,0 l/m 0 min 0 min 0 W/m 12,9 km/h (3 Bft) 95,74 %
20.12.2022 04:52 9,6 C 8,3 C 4,4 C 91 % 1015,0 hPa 0,0 l/m 0 min 0 min 0 W/m 12,9 km/h (3 Bft) 95,74 %
20.12.2022 04:54 9,5 C 8,3 C 3,9 C 91 % 1015,1 hPa 0,2 l/m 0 min 2 min 0 W/m 12,9 km/h (3 Bft) 97,87 %
20.12.2022 04:56 9,4 C 8,3 C 3,9 C 91 % 1015,0 hPa 0,0 l/m 0 min 2 min 0 W/m 12,9 km/h (3 Bft) 97,87 %
20.12.2022 04:58 9,4 C 8,3 C 4,4 C 91 % 1015,0 hPa 0,0 l/m 0 min 2 min 0 W/m 16,1 km/h (3 Bft) 97,83 %
20.12.2022 05:00 9,4 C 8,3 C 3,9 C 91 % 1014,9 hPa 0,0 l/m 0 min 2 min 0 W/m 12,9 km/h (3 Bft) 95,74 %
20.12.2022 05:02 9,3 C 8,3 C 4,4 C 91 % 1014,9 hPa 0,0 l/m 0 min 2 min 0 W/m 12,9 km/h (3 Bft) 97,87 %
20.12.2022 05:04 9,3 C 8,3 C 4,4 C 91 % 1014,9 hPa 0,0 l/m 0 min 2 min 0 W/m 16,1 km/h (3 Bft) 97,87 %
20.12.2022 05:06 9,3 C 8,3 C 4,4 C 92 % 1014,9 hPa 0,0 l/m 0 min 2 min 0 W/m 16,1 km/h (3 Bft) 93,62 %
20.12.2022 05:08 9,2 C 8,3 C 4,4 C 92 % 1014,9 hPa 0,0 l/m 0 min 2 min 0 W/m 16,1 km/h (3 Bft) 100,00 %
20.12.2022 05:10 9,2 C 8,3 C 4,4 C 92 % 1015,0 hPa 0,0 l/m 0 min 2 min 0 W/m 16,1 km/h (3 Bft) 97,87 %
20.12.2022 05:12 9,2 C 8,3 C 4,4 C 92 % 1015,0 hPa 0,2 l/m 0 min 2 min 0 W/m 12,9 km/h (3 Bft) 97,83 %
20.12.2022 05:14 9,2 C 8,3 C 4,4 C 92 % 1015,0 hPa 0,0 l/m 0 min 2 min 0 W/m 16,1 km/h (3 Bft) 97,87 %
20.12.2022 05:16 9,1 C 7,8 C 3,9 C 92 % 1014,9 hPa 0,0 l/m 0 min 2 min 0 W/m 12,9 km/h (3 Bft) 97,87 %
20.12.2022 05:18 9,1 C 7,8 C 3,9 C 92 % 1014,9 hPa 0,0 l/m 0 min 2 min 0 W/m 12,9 km/h (3 Bft) 95,74 %
20.12.2022 05:20 9,1 C 7,8 C 3,9 C 92 % 1014,9 hPa 0,0 l/m 0 min 2 min 0 W/m 12,9 km/h (3 Bft) 95,74 %
20.12.2022 05:22 9,1 C 7,8 C 3,9 C 92 % 1014,9 hPa 0,0 l/m 0 min 2 min 0 W/m 12,9 km/h (3 Bft) 97,87 %
20.12.2022 05:24 9,1 C 7,8 C 3,9 C 93 % 1014,9 hPa 0,0 l/m 0 min 2 min 0 W/m 12,9 km/h (3 Bft) 97,83 %
20.12.2022 05:26 9,0 C 7,8 C 3,9 C 93 % 1014,9 hPa 0,0 l/m 0 min 2 min 0 W/m 12,9 km/h (3 Bft) 97,87 %
20.12.2022 05:28 9,0 C 7,8 C 3,9 C 93 % 1014,9 hPa 0,0 l/m 0 min 2 min 0 W/m 19,3 km/h (3 Bft) 97,87 %
20.12.2022 05:30 8,9 C 7,8 C 3,9 C 93 % 1014,8 hPa 0,2 l/m 0 min 2 min 0 W/m 16,1 km/h (3 Bft) 97,87 %
20.12.2022 05:32 8,9 C 7,8 C 4,4 C 93 % 1014,8 hPa 0,0 l/m 0 min 0 min 0 W/m 16,1 km/h (3 Bft) 97,87 %
20.12.2022 05:34 8,9 C 7,8 C 4,4 C 93 % 1014,8 hPa 0,0 l/m 0 min 0 min 0 W/m 12,9 km/h (3 Bft) 91,49 %
20.12.2022 05:36 8,9 C 7,8 C 3,9 C 93 % 1014,9 hPa 0,0 l/m 0 min 2 min 0 W/m 16,1 km/h (3 Bft) 95,65 %
20.12.2022 05:38 8,8 C 7,8 C 4,4 C 93 % 1014,9 hPa 0,0 l/m 0 min 0 min 0 W/m 16,1 km/h (3 Bft) 97,87 %
20.12.2022 05:40 8,8 C 7,8 C 4,4 C 94 % 1014,9 hPa 0,0 l/m 0 min 0 min 0 W/m 16,1 km/h (3 Bft) 97,87 %
20.12.2022 05:42 8,8 C 7,8 C 4,4 C 94 % 1014,9 hPa 0,0 l/m 0 min 2 min 0 W/m 12,9 km/h (3 Bft) 95,74 %
20.12.2022 05:44 8,8 C 7,8 C 4,4 C 94 % 1014,8 hPa 0,0 l/m 0 min 0 min 0 W/m 16,1 km/h (3 Bft) 97,87 %
20.12.2022 05:46 8,8 C 7,8 C 4,4 C 94 % 1014,8 hPa 0,0 l/m 0 min 0 min 0 W/m 19,3 km/h (3 Bft) 97,87 %
20.12.2022 05:48 8,8 C 7,8 C 4,4 C 94 % 1014,7 hPa 0,0 l/m 0 min 2 min 0 W/m 16,1 km/h (3 Bft) 95,65 %
20.12.2022 05:50 8,8 C 7,8 C 4,4 C 94 % 1014,7 hPa 0,0 l/m 0 min 2 min 0 W/m 12,9 km/h (3 Bft) 93,62 %
20.12.2022 05:52 8,8 C 7,8 C 4,4 C 94 % 1014,7 hPa 0,0 l/m 0 min 0 min 0 W/m 16,1 km/h (3 Bft) 93,62 %
20.12.2022 05:54 8,8 C 7,8 C 4,4 C 94 % 1014,7 hPa 0,0 l/m 0 min 0 min 0 W/m 16,1 km/h (3 Bft) 93,75 %
20.12.2022 05:56 8,8 C 7,8 C 4,4 C 94 % 1014,7 hPa 0,0 l/m 0 min 2 min 0 W/m 16,1 km/h (3 Bft) 95,74 %
20.12.2022 05:58 8,8 C 7,8 C 4,4 C 94 % 1014,7 hPa 0,0 l/m 0 min 0 min 0 W/m 12,9 km/h (3 Bft) 95,74 %
20.12.2022 06:00 8,7 C 7,8 C 4,4 C 94 % 1014,6 hPa 0,0 l/m 0 min 0 min 0 W/m 16,1 km/h (3 Bft) 95,74 %
20.12.2022 06:02 8,7 C 7,8 C 4,4 C 95 % 1014,5 hPa 0,0 l/m 0 min 0 min 0 W/m 12,9 km/h (3 Bft) 91,49 %
20.12.2022 06:04 8,7 C 7,8 C 4,4 C 95 % 1014,5 hPa 0,0 l/m 0 min 0 min 0 W/m 19,3 km/h (3 Bft) 95,65 %
20.12.2022 06:08 8,7 C 7,8 C 4,4 C 95 % 1014,6 hPa 0,0 l/m 0 min 0 min 0 W/m 16,1 km/h (3 Bft) 96,88 %
20.12.2022 06:10 8,7 C 7,8 C 4,4 C 95 % 1014,6 hPa 0,0 l/m 0 min 0 min 0 W/m 16,1 km/h (3 Bft) 97,87 %
20.12.2022 06:12 8,7 C 7,8 C 4,4 C 95 % 1014,4 hPa 0,0 l/m 0 min 0 min 0 W/m 16,1 km/h (3 Bft) 95,74 %
20.12.2022 06:14 8,7 C 7,8 C 4,4 C 95 % 1014,4 hPa 0,0 l/m 0 min 0 min 0 W/m 12,9 km/h (3 Bft) 97,87 %
20.12.2022 06:16 8,7 C 7,8 C 4,4 C 95 % 1014,4 hPa 0,0 l/m 0 min 0 min 0 W/m 16,1 km/h (3 Bft) 97,83 %
20.12.2022 06:18 8,7 C 7,8 C 4,4 C 95 % 1014,4 hPa 0,0 l/m 0 min 0 min 0 W/m 16,1 km/h (3 Bft) 97,87 %
20.12.2022 06:20 8,7 C 7,8 C 4,4 C 95 % 1014,3 hPa 0,0 l/m 0 min 0 min 0 W/m 16,1 km/h (3 Bft) 95,74 %
20.12.2022 06:22 8,7 C 7,8 C 4,4 C 95 % 1014,3 hPa 0,0 l/m 0 min 0 min 0 W/m 12,9 km/h (3 Bft) 97,87 %
20.12.2022 06:24 8,7 C 7,8 C 4,4 C 95 % 1014,4 hPa 0,0 l/m 0 min 0 min 0 W/m 16,1 km/h (3 Bft) 97,87 %
20.12.2022 06:26 8,7 C 7,8 C 4,4 C 95 % 1014,3 hPa 0,0 l/m 0 min 0 min 0 W/m 19,3 km/h (3 Bft) 97,87 %
20.12.2022 06:28 8,7 C 7,8 C 4,4 C 95 % 1014,3 hPa 0,0 l/m 0 min 0 min 0 W/m 25,7 km/h (4 Bft) 97,83 %
20.12.2022 06:30 8,7 C 7,8 C 4,4 C 95 % 1014,3 hPa 0,0 l/m 0 min 0 min 0 W/m 16,1 km/h (3 Bft) 93,62 %
20.12.2022 06:32 8,7 C 7,8 C 4,4 C 95 % 1014,3 hPa 0,0 l/m 0 min 0 min 0 W/m 9,7 km/h (2 Bft) 97,87 %
20.12.2022 06:34 8,7 C 7,8 C 4,4 C 95 % 1014,3 hPa 0,0 l/m 0 min 0 min 0 W/m 16,1 km/h (3 Bft) 97,87 %
20.12.2022 06:36 8,7 C 7,8 C 4,4 C 95 % 1014,2 hPa 0,0 l/m 0 min 0 min 0 W/m 12,9 km/h (3 Bft) 97,87 %
20.12.2022 06:38 8,7 C 7,8 C 4,4 C 95 % 1014,2 hPa 0,0 l/m 0 min 0 min 0 W/m 12,9 km/h (3 Bft) 97,87 %
20.12.2022 06:40 8,7 C 8,3 C 4,4 C 95 % 1014,2 hPa 0,0 l/m 0 min 0 min 0 W/m 19,3 km/h (3 Bft) 97,87 %
20.12.2022 06:42 8,7 C 8,3 C 4,4 C 95 % 1014,2 hPa 0,0 l/m 0 min 0 min 0 W/m 12,9 km/h (3 Bft) 97,83 %
20.12.2022 06:44 8,7 C 8,3 C 4,4 C 95 % 1014,2 hPa 0,0 l/m 0 min 0 min 0 W/m 16,1 km/h (3 Bft) 97,87 %
20.12.2022 06:46 8,7 C 8,3 C 4,4 C 95 % 1014,2 hPa 0,0 l/m 0 min 0 min 0 W/m 12,9 km/h (3 Bft) 97,87 %
20.12.2022 06:48 8,7 C 8,3 C 4,4 C 95 % 1014,2 hPa 0,0 l/m 0 min 0 min 0 W/m 19,3 km/h (3 Bft) 97,87 %
20.12.2022 06:50 8,7 C 8,3 C 4,4 C 95 % 1014,1 hPa 0,0 l/m 0 min 0 min 0 W/m 16,1 km/h (3 Bft) 97,87 %
20.12.2022 06:52 8,8 C 8,3 C 4,4 C 95 % 1014,1 hPa 0,0 l/m 0 min 0 min 0 W/m 16,1 km/h (3 Bft) 97,87 %
20.12.2022 06:54 8,7 C 8,3 C 4,4 C 95 % 1014,0 hPa 0,0 l/m 0 min 0 min 0 W/m 12,9 km/h (3 Bft) 93,48 %
20.12.2022 06:56 8,8 C 8,3 C 4,4 C 95 % 1014,1 hPa 0,0 l/m 0 min 0 min 0 W/m 16,1 km/h (3 Bft) 95,74 %
20.12.2022 06:58 8,8 C 8,3 C 4,4 C 95 % 1014,0 hPa 0,0 l/m 0 min 0 min 0 W/m 16,1 km/h (3 Bft) 97,87 %
20.12.2022 07:00 8,8 C 8,3 C 4,4 C 95 % 1014,1 hPa 0,0 l/m 0 min 0 min 0 W/m 16,1 km/h (3 Bft) 100,00 %
20.12.2022 07:02 8,8 C 8,3 C 4,4 C 95 % 1014,0 hPa 0,0 l/m 0 min 0 min 0 W/m 16,1 km/h (3 Bft) 100,00 %
20.12.2022 07:04 8,8 C 8,3 C 4,4 C 95 % 1014,1 hPa 0,0 l/m 0 min 0 min 0 W/m 16,1 km/h (3 Bft) 97,87 %
20.12.2022 07:06 8,8 C 8,3 C 4,4 C 95 % 1014,1 hPa 0,0 l/m 0 min 0 min 0 W/m 19,3 km/h (3 Bft) 100,00 %
20.12.2022 07:08 8,8 C 8,3 C 4,4 C 95 % 1014,0 hPa 0,0 l/m 0 min 0 min 0 W/m 16,1 km/h (3 Bft) 100,00 %
20.12.2022 07:10 8,8 C 8,3 C 4,4 C 95 % 1014,1 hPa 0,0 l/m 0 min 0 min 0 W/m 22,5 km/h (4 Bft) 100,00 %
20.12.2022 07:12 8,8 C 8,3 C 4,4 C 95 % 1014,0 hPa 0,0 l/m 0 min 0 min 0 W/m 12,9 km/h (3 Bft) 100,00 %
20.12.2022 07:14 8,8 C 8,3 C 4,4 C 95 % 1014,0 hPa 0,0 l/m 0 min 0 min 0 W/m 16,1 km/h (3 Bft) 100,00 %
20.12.2022 07:16 8,8 C 8,3 C 4,4 C 95 % 1014,0 hPa 0,0 l/m 0 min 0 min 0 W/m 16,1 km/h (3 Bft) 97,87 %
20.12.2022 07:18 8,8 C 8,3 C 4,4 C 95 % 1014,0 hPa 0,0 l/m 0 min 0 min 0 W/m 12,9 km/h (3 Bft) 100,00 %
20.12.2022 07:20 8,8 C 8,3 C 4,4 C 95 % 1014,0 hPa 0,0 l/m 0 min 0 min 0 W/m 16,1 km/h (3 Bft) 100,00 %
20.12.2022 07:22 8,8 C 8,3 C 4,4 C 95 % 1014,0 hPa 0,0 l/m 0 min 0 min 0 W/m 12,9 km/h (3 Bft) 95,74 %
20.12.2022 07:24 8,7 C 8,3 C 4,4 C 95 % 1014,0 hPa 0,0 l/m 0 min 0 min 0 W/m 12,9 km/h (3 Bft) 100,00 %
20.12.2022 07:26 8,7 C 8,3 C 4,4 C 95 % 1014,0 hPa 0,0 l/m 0 min 0 min 0 W/m 12,9 km/h (3 Bft) 100,00 %
20.12.2022 07:28 8,7 C 8,3 C 4,4 C 95 % 1013,9 hPa 0,0 l/m 0 min 0 min 0 W/m 16,1 km/h (3 Bft) 100,00 %
20.12.2022 07:30 8,7 C 8,3 C 4,4 C 95 % 1013,8 hPa 0,0 l/m 0 min 0 min 0 W/m 12,9 km/h (3 Bft) 100,00 %
20.12.2022 07:32 8,7 C 8,3 C 4,4 C 95 % 1013,9 hPa 0,0 l/m 0 min 0 min 0 W/m 12,9 km/h (3 Bft) 100,00 %
20.12.2022 07:34 8,7 C 8,3 C 4,4 C 95 % 1013,8 hPa 0,0 l/m 0 min 0 min 0 W/m 12,9 km/h (3 Bft) 100,00 %
20.12.2022 07:36 8,7 C 8,3 C 4,4 C 95 % 1013,7 hPa 0,0 l/m 0 min 0 min 0 W/m 12,9 km/h (3 Bft) 95,74 %
20.12.2022 07:38 8,7 C 8,3 C 4,4 C 95 % 1013,7 hPa 0,0 l/m 0 min 0 min 0 W/m 25,7 km/h (4 Bft) 100,00 %
20.12.2022 07:40 8,8 C 8,3 C 4,4 C 95 % 1013,6 hPa 0,0 l/m 0 min 0 min 0 W/m 25,7 km/h (4 Bft) 100,00 %
20.12.2022 07:42 8,8 C 8,3 C 4,4 C 95 % 1013,6 hPa 0,0 l/m 0 min 0 min 0 W/m 19,3 km/h (3 Bft) 100,00 %
20.12.2022 07:44 8,8 C 8,3 C 4,4 C 95 % 1013,5 hPa 0,0 l/m 0 min 0 min 0 W/m 19,3 km/h (3 Bft) 100,00 %
20.12.2022 07:46 8,8 C 8,3 C 4,4 C 95 % 1013,5 hPa 0,0 l/m 0 min 0 min 0 W/m 12,9 km/h (3 Bft) 100,00 %
20.12.2022 07:48 8,8 C 8,3 C 4,4 C 95 % 1013,4 hPa 0,0 l/m 0 min 0 min 0 W/m 19,3 km/h (3 Bft) 100,00 %
20.12.2022 07:50 8,8 C 8,3 C 4,4 C 95 % 1013,5 hPa 0,0 l/m 0 min 0 min 0 W/m 19,3 km/h (3 Bft) 100,00 %
20.12.2022 07:52 8,8 C 8,3 C 4,4 C 95 % 1013,6 hPa 0,0 l/m 0 min 0 min 0 W/m 19,3 km/h (3 Bft) 100,00 %
20.12.2022 07:54 8,8 C 8,3 C 4,4 C 95 % 1013,5 hPa 0,0 l/m 0 min 0 min 0 W/m 12,9 km/h (3 Bft) 100,00 %
20.12.2022 07:56 8,8 C 8,3 C 4,4 C 95 % 1013,5 hPa 0,0 l/m 0 min 0 min 0 W/m 16,1 km/h (3 Bft) 98,11 %
20.12.2022 07:58 8,8 C 8,3 C 4,4 C 95 % 1013,5 hPa 0,0 l/m 0 min 0 min 0 W/m 16,1 km/h (3 Bft) 100,00 %
20.12.2022 08:00 8,8 C 8,3 C 4,4 C 95 % 1013,6 hPa 0,0 l/m 0 min 0 min 0 W/m 22,5 km/h (4 Bft) 97,83 %
20.12.2022 08:02 8,8 C 8,3 C 4,4 C 95 % 1013,6 hPa 0,0 l/m 0 min 0 min 0 W/m 19,3 km/h (3 Bft) 100,00 %
20.12.2022 08:04 8,8 C 8,3 C 4,4 C 95 % 1013,5 hPa 0,0 l/m 0 min 0 min 0 W/m 19,3 km/h (3 Bft) 97,87 %
20.12.2022 08:06 8,8 C 8,3 C 4,4 C 95 % 1013,5 hPa 0,0 l/m 0 min 0 min 0 W/m 16,1 km/h (3 Bft) 100,00 %
20.12.2022 08:08 8,8 C 8,3 C 4,4 C 95 % 1013,5 hPa 0,0 l/m 0 min 0 min 0 W/m 16,1 km/h (3 Bft) 100,00 %
20.12.2022 08:10 8,8 C 8,3 C 4,4 C 95 % 1013,5 hPa 0,0 l/m 0 min 0 min 0 W/m 16,1 km/h (3 Bft) 97,87 %
20.12.2022 08:12 8,8 C 8,3 C 4,4 C 95 % 1013,4 hPa 0,0 l/m 0 min 0 min 0 W/m 19,3 km/h (3 Bft) 100,00 %
20.12.2022 08:14 8,8 C 8,3 C 4,4 C 95 % 1013,4 hPa 0,0 l/m 0 min 0 min 0 W/m 16,1 km/h (3 Bft) 100,00 %
20.12.2022 08:16 8,8 C 8,3 C 4,4 C 94 % 1013,4 hPa 0,0 l/m 0 min 0 min 0 W/m 12,9 km/h (3 Bft) 97,87 %
20.12.2022 08:18 8,8 C 8,3 C 4,4 C 94 % 1013,3 hPa 0,0 l/m 0 min 0 min 0 W/m 19,3 km/h (3 Bft) 95,74 %
20.12.2022 08:20 8,8 C 8,3 C 4,4 C 94 % 1013,4 hPa 0,0 l/m 0 min 0 min 0 W/m 9,7 km/h (2 Bft) 95,74 %
20.12.2022 08:22 8,8 C 8,3 C 4,4 C 94 % 1013,4 hPa 0,0 l/m 0 min 0 min 0 W/m 19,3 km/h (3 Bft) 91,49 %
20.12.2022 08:24 8,8 C 8,3 C 4,4 C 94 % 1013,3 hPa 0,0 l/m 0 min 0 min 0 W/m 16,1 km/h (3 Bft) 93,62 %
20.12.2022 08:26 8,8 C 8,3 C 4,4 C 94 % 1013,3 hPa 0,0 l/m 0 min 0 min 0 W/m 16,1 km/h (3 Bft) 93,48 %
20.12.2022 08:28 8,8 C 8,3 C 4,4 C 94 % 1013,3 hPa 0,0 l/m 0 min 2 min 0 W/m 16,1 km/h (3 Bft) 93,62 %
20.12.2022 08:30 8,8 C 8,3 C 4,4 C 94 % 1013,2 hPa 0,0 l/m 0 min 0 min 0 W/m 16,1 km/h (3 Bft) 91,49 %
20.12.2022 08:32 8,8 C 8,3 C 4,4 C 94 % 1013,2 hPa 0,0 l/m 0 min 0 min 0 W/m 19,3 km/h (3 Bft) 93,62 %
20.12.2022 08:34 8,8 C 8,3 C 4,4 C 94 % 1013,2 hPa 0,0 l/m 0 min 0 min 0 W/m 19,3 km/h (3 Bft) 93,62 %
20.12.2022 08:36 8,8 C 8,3 C 4,4 C 94 % 1013,2 hPa 0,0 l/m 0 min 0 min 0 W/m 19,3 km/h (3 Bft) 93,62 %
20.12.2022 08:38 8,8 C 8,3 C 4,4 C 94 % 1013,2 hPa 0,0 l/m 0 min 0 min 0 W/m 19,3 km/h (3 Bft) 93,62 %
20.12.2022 08:40 8,8 C 8,3 C 4,4 C 94 % 1013,2 hPa 0,0 l/m 0 min 0 min 0 W/m 16,1 km/h (3 Bft) 93,48 %
20.12.2022 08:42 8,8 C 8,3 C 4,4 C 94 % 1013,1 hPa 0,0 l/m 0 min 0 min 1 W/m 12,9 km/h (3 Bft) 93,62 %
20.12.2022 08:44 8,8 C 8,3 C 4,4 C 94 % 1013,1 hPa 0,0 l/m 0 min 0 min 5 W/m 19,3 km/h (3 Bft) 93,62 %
20.12.2022 08:46 8,8 C 8,3 C 4,4 C 94 % 1013,2 hPa 0,0 l/m 0 min 0 min 5 W/m 12,9 km/h (3 Bft) 91,49 %
20.12.2022 08:48 8,8 C 8,3 C 4,4 C 94 % 1013,3 hPa 0,0 l/m 0 min 0 min 5 W/m 12,9 km/h (3 Bft) 93,62 %
20.12.2022 08:50 8,8 C 8,3 C 4,4 C 94 % 1013,4 hPa 0,0 l/m 0 min 0 min 5 W/m 16,1 km/h (3 Bft) 93,62 %
20.12.2022 08:52 8,8 C 8,3 C 4,4 C 94 % 1013,4 hPa 0,0 l/m 0 min 0 min 5 W/m 19,3 km/h (3 Bft) 93,48 %
20.12.2022 08:54 8,9 C 8,3 C 4,4 C 94 % 1013,4 hPa 0,0 l/m 0 min 0 min 5 W/m 16,1 km/h (3 Bft) 95,74 %
20.12.2022 08:56 8,9 C 8,3 C 4,4 C 94 % 1013,5 hPa 0,0 l/m 0 min 0 min 5 W/m 16,1 km/h (3 Bft) 96,00 %
20.12.2022 08:58 8,9 C 8,3 C 4,4 C 94 % 1013,5 hPa 0,0 l/m 0 min 0 min 5 W/m 12,9 km/h (3 Bft) 97,14 %
20.12.2022 09:00 8,9 C 8,3 C 4,4 C 94 % 1013,5 hPa 0,0 l/m 0 min 0 min 5 W/m 12,9 km/h (3 Bft) 98,31 %
20.12.2022 09:02 8,9 C 8,3 C 4,4 C 94 % 1013,5 hPa 0,0 l/m 0 min 0 min 5 W/m 12,9 km/h (3 Bft) 94,29 %
20.12.2022 09:04 8,9 C 8,3 C 5,0 C 94 % 1013,5 hPa 0,0 l/m 0 min 0 min 5 W/m 19,3 km/h (3 Bft) 96,55 %
20.12.2022 09:06 8,9 C 8,3 C 4,4 C 94 % 1013,4 hPa 0,0 l/m 0 min 0 min 5 W/m 12,9 km/h (3 Bft) 97,92 %
20.12.2022 09:08 8,9 C 8,3 C 5,0 C 94 % 1013,4 hPa 0,0 l/m 0 min 0 min 5 W/m 16,1 km/h (3 Bft) 97,14 %
20.12.2022 09:10 8,9 C 8,3 C 5,0 C 94 % 1013,4 hPa 0,0 l/m 0 min 0 min 5 W/m 12,9 km/h (3 Bft) 100,00 %
20.12.2022 09:12 8,9 C 8,3 C 5,0 C 94 % 1013,3 hPa 0,0 l/m 0 min 0 min 5 W/m 12,9 km/h (3 Bft) 95,74 %
20.12.2022 09:14 8,9 C 8,3 C 5,0 C 94 % 1013,3 hPa 0,0 l/m 0 min 0 min 5 W/m 12,9 km/h (3 Bft) 59,57 %
20.12.2022 09:16 8,9 C 8,3 C 5,0 C 94 % 1013,3 hPa 0,0 l/m 0 min 0 min 5 W/m 16,1 km/h (3 Bft) 95,65 %
20.12.2022 09:18 8,9 C 8,3 C 5,0 C 93 % 1013,3 hPa 0,0 l/m 0 min 0 min 7 W/m 16,1 km/h (3 Bft) 100,00 %
20.12.2022 09:20 8,9 C 8,3 C 5,0 C 93 % 1013,3 hPa 0,0 l/m 0 min 0 min 7 W/m 19,3 km/h (3 Bft) 97,83 %
20.12.2022 09:22 8,9 C 8,3 C 5,0 C 93 % 1013,2 hPa 0,0 l/m 0 min 0 min 10 W/m 12,9 km/h (3 Bft) 93,75 %
20.12.2022 09:24 8,9 C 8,3 C 5,0 C 93 % 1013,2 hPa 0,0 l/m 0 min 0 min 12 W/m 16,1 km/h (3 Bft) 100,00 %
20.12.2022 09:26 8,9 C 8,3 C 5,0 C 93 % 1013,2 hPa 0,0 l/m 0 min 0 min 14 W/m 19,3 km/h (3 Bft) 100,00 %
20.12.2022 09:28 8,9 C 8,3 C 5,0 C 93 % 1013,2 hPa 0,0 l/m 0 min 0 min 16 W/m 16,1 km/h (3 Bft) 97,37 %
20.12.2022 09:30 9,0 C 8,3 C 5,0 C 93 % 1013,3 hPa 0,0 l/m 0 min 0 min 16 W/m 12,9 km/h (3 Bft) 97,87 %
20.12.2022 09:32 9,0 C 8,3 C 5,0 C 93 % 1013,3 hPa 0,0 l/m 0 min 0 min 17 W/m 12,9 km/h (3 Bft) 100,00 %
20.12.2022 09:34 9,0 C 8,3 C 5,0 C 93 % 1013,3 hPa 0,0 l/m 0 min 0 min 18 W/m 16,1 km/h (3 Bft) 97,87 %
20.12.2022 09:36 9,1 C 8,3 C 5,0 C 93 % 1013,4 hPa 0,0 l/m 0 min 0 min 19 W/m 16,1 km/h (3 Bft) 100,00 %
20.12.2022 09:38 9,1 C 8,9 C 5,0 C 93 % 1013,3 hPa 0,0 l/m 0 min 0 min 21 W/m 16,1 km/h (3 Bft) 97,87 %
20.12.2022 09:40 9,1 C 8,9 C 5,0 C 93 % 1013,3 hPa 0,0 l/m 0 min 0 min 20 W/m 12,9 km/h (3 Bft) 100,00 %
20.12.2022 09:42 9,1 C 8,9 C 5,0 C 93 % 1013,3 hPa 0,0 l/m 0 min 0 min 19 W/m 19,3 km/h (3 Bft) 100,00 %
20.12.2022 09:44 9,1 C 8,9 C 5,0 C 93 % 1013,3 hPa 0,0 l/m 0 min 0 min 19 W/m 16,1 km/h (3 Bft) 100,00 %
20.12.2022 09:46 9,1 C 8,9 C 5,0 C 93 % 1013,3 hPa 0,0 l/m 0 min 0 min 19 W/m 12,9 km/h (3 Bft) 100,00 %
20.12.2022 09:48 9,1 C 8,3 C 5,0 C 93 % 1013,4 hPa 0,0 l/m 0 min 0 min 17 W/m 16,1 km/h (3 Bft) 97,87 %
20.12.2022 09:50 9,1 C 8,3 C 5,0 C 93 % 1013,3 hPa 0,0 l/m 0 min 0 min 16 W/m 12,9 km/h (3 Bft) 100,00 %
20.12.2022 09:52 9,1 C 8,3 C 5,0 C 93 % 1013,3 hPa 0,0 l/m 0 min 0 min 13 W/m 6,4 km/h (2 Bft) 100,00 %
20.12.2022 09:54 9,1 C 8,3 C 5,0 C 93 % 1013,3 hPa 0,0 l/m 0 min 0 min 12 W/m 12,9 km/h (3 Bft) 100,00 %
20.12.2022 09:56 9,1 C 8,3 C 5,0 C 93 % 1013,3 hPa 0,0 l/m 0 min 0 min 13 W/m 9,7 km/h (2 Bft) 95,74 %
20.12.2022 09:58 9,1 C 8,3 C 5,0 C 93 % 1013,3 hPa 0,0 l/m 0 min 0 min 13 W/m 12,9 km/h (3 Bft) 100,00 %
20.12.2022 10:00 9,1 C 8,3 C 5,0 C 93 % 1013,3 hPa 0,0 l/m 0 min 0 min 12 W/m 12,9 km/h (3 Bft) 100,00 %
20.12.2022 10:02 9,1 C 8,3 C 5,0 C 93 % 1013,3 hPa 0,0 l/m 0 min 0 min 14 W/m 16,1 km/h (3 Bft) 97,87 %
20.12.2022 10:04 9,1 C 8,3 C 5,0 C 93 % 1013,3 hPa 0,0 l/m 0 min 0 min 14 W/m 16,1 km/h (3 Bft) 100,00 %
20.12.2022 10:06 9,1 C 8,3 C 5,0 C 93 % 1013,4 hPa 0,0 l/m 0 min 0 min 12 W/m 6,4 km/h (2 Bft) 100,00 %
20.12.2022 10:08 9,2 C 8,3 C 5,0 C 93 % 1013,4 hPa 0,0 l/m 0 min 0 min 12 W/m 6,4 km/h (2 Bft) 100,00 %
20.12.2022 10:10 9,1 C 8,3 C 5,0 C 93 % 1013,3 hPa 0,0 l/m 0 min 2 min 11 W/m 12,9 km/h (3 Bft) 97,87 %
20.12.2022 10:12 9,1 C 8,3 C 5,0 C 93 % 1013,3 hPa 0,0 l/m 0 min 2 min 11 W/m 12,9 km/h (3 Bft) 97,83 %
20.12.2022 10:14 9,2 C 8,3 C 5,0 C 93 % 1013,3 hPa 0,0 l/m 0 min 2 min 15 W/m 12,9 km/h (3 Bft) 97,87 %
20.12.2022 10:16 9,2 C 8,9 C 5,0 C 93 % 1013,3 hPa 0,0 l/m 0 min 0 min 17 W/m 12,9 km/h (3 Bft) 95,74 %
20.12.2022 10:18 9,2 C 8,3 C 5,0 C 93 % 1013,3 hPa 0,0 l/m 0 min 0 min 25 W/m 6,4 km/h (2 Bft) 97,87 %
20.12.2022 10:20 9,2 C 8,9 C 5,0 C 93 % 1013,3 hPa 0,0 l/m 0 min 0 min 32 W/m 12,9 km/h (3 Bft) 95,74 %
20.12.2022 10:22 9,2 C 8,9 C 5,0 C 93 % 1013,3 hPa 0,0 l/m 0 min 0 min 29 W/m 12,9 km/h (3 Bft) 97,87 %
20.12.2022 10:24 9,2 C 8,9 C 5,0 C 93 % 1013,3 hPa 0,0 l/m 0 min 0 min 26 W/m 12,9 km/h (3 Bft) 97,83 %
20.12.2022 10:26 9,2 C 8,9 C 5,0 C 93 % 1013,2 hPa 0,0 l/m 0 min 0 min 28 W/m 12,9 km/h (3 Bft) 97,87 %
20.12.2022 10:28 9,2 C 8,9 C 5,0 C 93 % 1013,3 hPa 0,0 l/m 0 min 2 min 38 W/m 6,4 km/h (2 Bft) 97,87 %
20.12.2022 10:30 9,2 C 8,9 C 5,0 C 93 % 1013,2 hPa 0,0 l/m 0 min 2 min 46 W/m 16,1 km/h (3 Bft) 97,87 %
20.12.2022 10:32 9,3 C 8,9 C 5,0 C 93 % 1013,2 hPa 0,0 l/m 0 min 2 min 49 W/m 12,9 km/h (3 Bft) 97,87 %
20.12.2022 10:34 9,3 C 8,9 C 5,0 C 93 % 1013,2 hPa 0,0 l/m 0 min 2 min 50 W/m 12,9 km/h (3 Bft) 95,74 %
20.12.2022 10:36 9,3 C 8,9 C 5,0 C 93 % 1013,2 hPa 0,0 l/m 0 min 0 min 49 W/m 16,1 km/h (3 Bft) 95,74 %
20.12.2022 10:38 9,3 C 8,9 C 5,0 C 93 % 1013,2 hPa 0,0 l/m 0 min 0 min 41 W/m 12,9 km/h (3 Bft) 95,65 %
20.12.2022 10:40 9,3 C 8,9 C 5,0 C 93 % 1013,2 hPa 0,0 l/m 0 min 0 min 38 W/m 12,9 km/h (3 Bft) 97,87 %
20.12.2022 10:42 9,3 C 8,9 C 5,0 C 93 % 1013,2 hPa 0,0 l/m 0 min 0 min 37 W/m 12,9 km/h (3 Bft) 95,74 %
20.12.2022 10:44 9,3 C 8,9 C 5,0 C 93 % 1013,2 hPa 0,0 l/m 0 min 2 min 35 W/m 16,1 km/h (3 Bft) 93,62 %
20.12.2022 10:46 9,3 C 8,9 C 5,0 C 93 % 1013,2 hPa 0,0 l/m 0 min 2 min 33 W/m 16,1 km/h (3 Bft) 95,83 %
20.12.2022 10:48 9,3 C 8,9 C 5,0 C 93 % 1013,2 hPa 0,0 l/m 0 min 2 min 31 W/m 19,3 km/h (3 Bft) 100,00 %
20.12.2022 10:50 9,3 C 8,9 C 5,0 C 93 % 1013,2 hPa 0,0 l/m 0 min 0 min 28 W/m 16,1 km/h (3 Bft) 97,83 %
20.12.2022 10:52 9,3 C 8,9 C 5,0 C 93 % 1013,2 hPa 0,0 l/m 0 min 0 min 26 W/m 12,9 km/h (3 Bft) 98,18 %
20.12.2022 10:54 9,3 C 8,9 C 5,0 C 93 % 1013,2 hPa 0,0 l/m 0 min 0 min 28 W/m 16,1 km/h (3 Bft) 95,74 %
20.12.2022 10:56 9,3 C 8,9 C 5,0 C 93 % 1013,2 hPa 0,0 l/m 0 min 0 min 28 W/m 16,1 km/h (3 Bft) 97,87 %
20.12.2022 10:58 9,3 C 8,9 C 5,0 C 93 % 1013,3 hPa 0,0 l/m 0 min 0 min 28 W/m 12,9 km/h (3 Bft) 97,62 %
20.12.2022 11:00 9,4 C 8,9 C 5,0 C 93 % 1013,3 hPa 0,0 l/m 0 min 0 min 29 W/m 16,1 km/h (3 Bft) 97,87 %
20.12.2022 11:02 9,3 C 8,9 C 5,0 C 93 % 1013,3 hPa 0,0 l/m 0 min 0 min 33 W/m 12,9 km/h (3 Bft) 97,83 %
20.12.2022 11:04 9,3 C 8,9 C 5,0 C 93 % 1013,2 hPa 0,0 l/m 0 min 0 min 34 W/m 12,9 km/h (3 Bft) 97,87 %
20.12.2022 11:06 9,3 C 8,9 C 5,0 C 93 % 1013,2 hPa 0,0 l/m 0 min 0 min 36 W/m 12,9 km/h (3 Bft) 97,87 %
20.12.2022 11:08 9,3 C 8,9 C 5,0 C 93 % 1013,2 hPa 0,0 l/m 0 min 0 min 37 W/m 12,9 km/h (3 Bft) 97,87 %
20.12.2022 11:10 9,4 C 8,9 C 5,0 C 93 % 1013,1 hPa 0,0 l/m 0 min 0 min 39 W/m 6,4 km/h (2 Bft) 95,74 %
20.12.2022 11:12 9,4 C 8,9 C 5,0 C 93 % 1013,2 hPa 0,0 l/m 0 min 0 min 38 W/m 6,4 km/h (2 Bft) 97,87 %
20.12.2022 11:14 9,4 C 8,9 C 5,0 C 93 % 1013,2 hPa 0,0 l/m 0 min 0 min 37 W/m 9,7 km/h (2 Bft) 97,87 %
20.12.2022 11:16 9,4 C 8,9 C 5,0 C 93 % 1013,1 hPa 0,0 l/m 0 min 0 min 36 W/m 9,7 km/h (2 Bft) 97,83 %
20.12.2022 11:18 9,4 C 8,9 C 5,0 C 93 % 1013,1 hPa 0,0 l/m 0 min 2 min 31 W/m 6,4 km/h (2 Bft) 97,87 %
20.12.2022 11:20 9,4 C 8,9 C 5,0 C 93 % 1013,0 hPa 0,0 l/m 0 min 2 min 30 W/m 16,1 km/h (3 Bft) 95,74 %
20.12.2022 11:22 9,4 C 8,9 C 5,0 C 93 % 1013,0 hPa 0,0 l/m 0 min 2 min 36 W/m 16,1 km/h (3 Bft) 95,74 %
20.12.2022 11:24 9,4 C 8,9 C 5,0 C 93 % 1012,9 hPa 0,0 l/m 0 min 0 min 43 W/m 12,9 km/h (3 Bft) 93,62 %
20.12.2022 11:26 9,4 C 8,9 C 5,0 C 93 % 1012,9 hPa 0,0 l/m 0 min 0 min 44 W/m 12,9 km/h (3 Bft) 95,74 %
20.12.2022 11:28 9,4 C 8,9 C 5,0 C 93 % 1013,0 hPa 0,0 l/m 0 min 0 min 40 W/m 12,9 km/h (3 Bft) 95,65 %
20.12.2022 11:30 9,4 C 9,4 C 5,0 C 93 % 1012,9 hPa 0,0 l/m 0 min 0 min 48 W/m 12,9 km/h (3 Bft) 93,62 %
20.12.2022 11:32 9,5 C 9,4 C 5,0 C 93 % 1012,9 hPa 0,0 l/m 0 min 0 min 53 W/m 9,7 km/h (2 Bft) 95,74 %
20.12.2022 11:34 9,5 C 9,4 C 5,0 C 93 % 1012,9 hPa 0,0 l/m 0 min 0 min 54 W/m 19,3 km/h (3 Bft) 97,87 %
20.12.2022 11:36 9,5 C 9,4 C 5,6 C 93 % 1012,8 hPa 0,0 l/m 0 min 0 min 60 W/m 12,9 km/h (3 Bft) 95,74 %
20.12.2022 11:38 9,6 C 9,4 C 5,6 C 93 % 1012,8 hPa 0,0 l/m 0 min 0 min 58 W/m 16,1 km/h (3 Bft) 97,87 %
20.12.2022 11:40 9,6 C 9,4 C 5,6 C 93 % 1012,7 hPa 0,0 l/m 0 min 0 min 54 W/m 16,1 km/h (3 Bft) 97,83 %
20.12.2022 11:42 9,6 C 9,4 C 5,6 C 93 % 1012,7 hPa 0,0 l/m 0 min 0 min 53 W/m 12,9 km/h (3 Bft) 95,74 %
20.12.2022 11:44 9,6 C 9,4 C 5,6 C 93 % 1012,7 hPa 0,0 l/m 0 min 2 min 54 W/m 12,9 km/h (3 Bft) 95,74 %
20.12.2022 11:46 9,7 C 9,4 C 5,6 C 93 % 1012,7 hPa 0,0 l/m 0 min 2 min 58 W/m 12,9 km/h (3 Bft) 97,87 %
20.12.2022 11:48 9,7 C 9,4 C 5,6 C 93 % 1012,7 hPa 0,2 l/m 0 min 2 min 56 W/m 12,9 km/h (3 Bft) 97,87 %
20.12.2022 11:50 9,7 C 9,4 C 5,6 C 93 % 1012,6 hPa 0,0 l/m 0 min 0 min 49 W/m 12,9 km/h (3 Bft) 97,87 %
20.12.2022 11:52 9,8 C 10,0 C 5,6 C 93 % 1012,6 hPa 0,0 l/m 0 min 0 min 53 W/m 22,5 km/h (4 Bft) 95,74 %
20.12.2022 11:54 9,8 C 9,4 C 5,6 C 93 % 1012,5 hPa 0,0 l/m 0 min 0 min 46 W/m 16,1 km/h (3 Bft) 97,83 %
20.12.2022 11:56 9,8 C 9,4 C 5,6 C 93 % 1012,5 hPa 0,0 l/m 0 min 0 min 33 W/m 12,9 km/h (3 Bft) 97,87 %
20.12.2022 11:58 9,9 C 9,4 C 5,6 C 93 % 1012,6 hPa 0,0 l/m 0 min 0 min 30 W/m 9,7 km/h (2 Bft) 93,62 %
20.12.2022 12:00 9,9 C 10,0 C 5,6 C 93 % 1012,6 hPa 0,0 l/m 0 min 0 min 29 W/m 16,1 km/h (3 Bft) 97,87 %
20.12.2022 12:02 9,9 C 10,0 C 5,6 C 93 % 1012,6 hPa 0,0 l/m 0 min 0 min 32 W/m 16,1 km/h (3 Bft) 97,87 %
20.12.2022 12:04 9,9 C 10,0 C 5,6 C 93 % 1012,6 hPa 0,0 l/m 0 min 0 min 30 W/m 16,1 km/h (3 Bft) 97,87 %
20.12.2022 12:08 10,1 C 10,0 C 5,6 C 93 % 1012,4 hPa 0,0 l/m 0 min 0 min 39 W/m 16,1 km/h (3 Bft) 97,73 %
20.12.2022 12:10 10,1 C 10,0 C 5,6 C 93 % 1012,5 hPa 0,0 l/m 0 min 0 min 43 W/m 6,4 km/h (2 Bft) 100,00 %
20.12.2022 12:12 10,1 C 10,0 C 5,6 C 92 % 1012,4 hPa 0,0 l/m 0 min 0 min 49 W/m 12,9 km/h (3 Bft) 93,62 %
20.12.2022 12:14 10,1 C 10,0 C 6,1 C 92 % 1012,4 hPa 0,0 l/m 0 min 0 min 51 W/m 16,1 km/h (3 Bft) 95,74 %
20.12.2022 12:16 10,1 C 10,0 C 6,1 C 92 % 1012,4 hPa 0,0 l/m 0 min 0 min 48 W/m 12,9 km/h (3 Bft) 97,87 %
20.12.2022 12:18 10,2 C 10,0 C 6,1 C 92 % 1012,4 hPa 0,0 l/m 0 min 2 min 41 W/m 12,9 km/h (3 Bft) 95,74 %
20.12.2022 12:20 10,2 C 10,0 C 6,1 C 92 % 1012,4 hPa 0,0 l/m 0 min 0 min 33 W/m 16,1 km/h (3 Bft) 95,65 %
20.12.2022 12:22 10,2 C 10,0 C 6,1 C 92 % 1012,3 hPa 0,0 l/m 0 min 0 min 33 W/m 12,9 km/h (3 Bft) 97,87 %
20.12.2022 12:24 10,2 C 10,0 C 6,1 C 92 % 1012,3 hPa 0,0 l/m 0 min 0 min 44 W/m 6,4 km/h (2 Bft) 95,74 %
20.12.2022 12:26 10,2 C 10,0 C 6,1 C 92 % 1012,3 hPa 0,0 l/m 0 min 0 min 44 W/m 16,1 km/h (3 Bft) 95,74 %
20.12.2022 12:28 10,3 C 10,0 C 6,1 C 92 % 1012,3 hPa 0,0 l/m 0 min 0 min 42 W/m 16,1 km/h (3 Bft) 97,87 %
20.12.2022 12:30 10,3 C 10,0 C 6,1 C 92 % 1012,3 hPa 0,0 l/m 0 min 0 min 44 W/m 12,9 km/h (3 Bft) 95,74 %
20.12.2022 12:32 10,3 C 10,0 C 6,1 C 92 % 1012,3 hPa 0,0 l/m 0 min 0 min 33 W/m 12,9 km/h (3 Bft) 97,92 %
20.12.2022 12:34 10,3 C 10,0 C 6,1 C 92 % 1012,2 hPa 0,0 l/m 0 min 0 min 35 W/m 16,1 km/h (3 Bft) 97,87 %
20.12.2022 12:36 10,3 C 10,0 C 6,1 C 92 % 1012,3 hPa 0,0 l/m 0 min 0 min 40 W/m 12,9 km/h (3 Bft) 97,87 %
20.12.2022 12:38 10,4 C 10,0 C 6,1 C 91 % 1012,2 hPa 0,0 l/m 0 min 0 min 44 W/m 9,7 km/h (2 Bft) 97,87 %
20.12.2022 12:40 10,4 C 10,0 C 6,1 C 91 % 1012,2 hPa 0,0 l/m 0 min 0 min 53 W/m 6,4 km/h (2 Bft) 97,87 %
20.12.2022 12:42 10,4 C 10,0 C 6,1 C 91 % 1012,2 hPa 0,0 l/m 0 min 0 min 60 W/m 6,4 km/h (2 Bft) 33,33 %
20.12.2022 12:44 10,4 C 10,0 C 6,1 C 91 % 1012,2 hPa 0,0 l/m 0 min 0 min 55 W/m 9,7 km/h (2 Bft) 97,87 %
20.12.2022 12:46 10,4 C 10,6 C 6,1 C 91 % 1012,1 hPa 0,0 l/m 0 min 0 min 52 W/m 9,7 km/h (2 Bft) 97,83 %
20.12.2022 12:48 10,4 C 10,6 C 6,1 C 91 % 1012,1 hPa 0,0 l/m 0 min 0 min 52 W/m 16,1 km/h (3 Bft) 100,00 %
20.12.2022 12:50 10,5 C 10,6 C 6,1 C 91 % 1012,1 hPa 0,0 l/m 0 min 0 min 53 W/m 6,4 km/h (2 Bft) 95,74 %
20.12.2022 12:52 10,5 C 10,6 C 6,1 C 91 % 1012,0 hPa 0,0 l/m 0 min 0 min 51 W/m 12,9 km/h (3 Bft) 97,87 %
20.12.2022 12:54 10,5 C 10,6 C 6,1 C 91 % 1012,0 hPa 0,0 l/m 0 min 0 min 49 W/m 12,9 km/h (3 Bft) 100,00 %
20.12.2022 12:56 10,6 C 10,6 C 6,1 C 91 % 1012,0 hPa 0,0 l/m 0 min 0 min 54 W/m 6,4 km/h (2 Bft) 100,00 %
20.12.2022 12:58 10,6 C 10,6 C 6,1 C 91 % 1012,0 hPa 0,0 l/m 0 min 0 min 54 W/m 6,4 km/h (2 Bft) 100,00 %
20.12.2022 13:00 10,6 C 10,6 C 6,1 C 91 % 1012,1 hPa 0,0 l/m 0 min 0 min 52 W/m 3,2 km/h (1 Bft) 100,00 %
20.12.2022 13:02 10,6 C 10,6 C 6,1 C 91 % 1012,0 hPa 0,0 l/m 0 min 0 min 53 W/m 16,1 km/h (3 Bft) 100,00 %
20.12.2022 13:04 10,6 C 10,6 C 6,1 C 91 % 1011,9 hPa 0,0 l/m 0 min 0 min 57 W/m 6,4 km/h (2 Bft) 100,00 %
20.12.2022 13:06 10,7 C 10,6 C 6,1 C 91 % 1011,9 hPa 0,0 l/m 0 min 0 min 59 W/m 6,4 km/h (2 Bft) 98,31 %
20.12.2022 13:08 10,7 C 10,6 C 6,1 C 91 % 1011,9 hPa 0,0 l/m 0 min 0 min 62 W/m 3,2 km/h (1 Bft) 100,00 %
20.12.2022 13:10 10,7 C 10,6 C 6,1 C 91 % 1011,9 hPa 0,0 l/m 0 min 0 min 59 W/m 6,4 km/h (2 Bft) 100,00 %
20.12.2022 13:12 10,7 C 10,6 C 6,7 C 91 % 1011,9 hPa 0,0 l/m 0 min 0 min 58 W/m 6,4 km/h (2 Bft) 100,00 %
20.12.2022 13:14 10,7 C 10,6 C 6,7 C 91 % 1012,0 hPa 0,0 l/m 0 min 0 min 57 W/m 6,4 km/h (2 Bft) 97,87 %
20.12.2022 13:16 10,8 C 10,6 C 6,7 C 91 % 1012,0 hPa 0,0 l/m 0 min 0 min 50 W/m 12,9 km/h (3 Bft) 100,00 %
20.12.2022 13:18 10,8 C 10,6 C 6,7 C 91 % 1012,0 hPa 0,0 l/m 0 min 0 min 50 W/m 6,4 km/h (2 Bft) 100,00 %
20.12.2022 13:20 10,8 C 11,1 C 6,7 C 91 % 1012,0 hPa 0,0 l/m 0 min 0 min 49 W/m 6,4 km/h (2 Bft) 95,74 %
20.12.2022 13:22 10,9 C 11,1 C 6,7 C 91 % 1012,0 hPa 0,0 l/m 0 min 0 min 47 W/m 16,1 km/h (3 Bft) 100,00 %
20.12.2022 13:24 11,0 C 11,1 C 6,7 C 91 % 1012,1 hPa 0,0 l/m 0 min 0 min 47 W/m 29,0 km/h (5 Bft) 97,83 %
20.12.2022 13:26 11,2 C 11,7 C 7,2 C 91 % 1012,1 hPa 0,0 l/m 0 min 0 min 44 W/m 32,2 km/h (5 Bft) 97,87 %
20.12.2022 13:28 11,4 C 11,7 C 7,2 C 91 % 1012,0 hPa 0,0 l/m 0 min 0 min 41 W/m 57,9 km/h (7 Bft) 100,00 %
20.12.2022 13:30 11,6 C 11,1 C 7,2 C 90 % 1012,1 hPa 0,0 l/m 0 min 0 min 38 W/m 32,2 km/h (5 Bft) 97,87 %
20.12.2022 13:32 11,7 C 10,6 C 7,2 C 90 % 1012,0 hPa 0,0 l/m 0 min 2 min 34 W/m 35,4 km/h (5 Bft) 95,74 %
20.12.2022 13:34 11,8 C 10,6 C 7,2 C 90 % 1012,1 hPa 0,0 l/m 0 min 2 min 30 W/m 41,8 km/h (6 Bft) 97,87 %
20.12.2022 13:36 11,8 C 10,6 C 6,7 C 91 % 1012,0 hPa 0,0 l/m 0 min 2 min 32 W/m 29,0 km/h (5 Bft) 97,87 %
20.12.2022 13:38 11,8 C 10,0 C 6,7 C 91 % 1012,0 hPa 0,0 l/m 0 min 2 min 40 W/m 41,8 km/h (6 Bft) 97,83 %
20.12.2022 13:40 11,7 C 10,0 C 6,7 C 91 % 1012,0 hPa 0,0 l/m 0 min 2 min 49 W/m 25,7 km/h (4 Bft) 97,87 %
20.12.2022 13:42 11,7 C 10,0 C 6,7 C 91 % 1012,0 hPa 0,0 l/m 0 min 2 min 47 W/m 25,7 km/h (4 Bft) 97,87 %
20.12.2022 13:44 11,6 C 10,0 C 6,7 C 92 % 1011,9 hPa 0,0 l/m 0 min 2 min 53 W/m 32,2 km/h (5 Bft) 97,87 %
20.12.2022 13:46 11,6 C 10,0 C 6,7 C 92 % 1011,9 hPa 0,0 l/m 0 min 2 min 58 W/m 29,0 km/h (5 Bft) 97,87 %
20.12.2022 13:48 11,5 C 10,0 C 6,7 C 92 % 1012,0 hPa 0,0 l/m 0 min 2 min 73 W/m 29,0 km/h (5 Bft) 97,87 %
20.12.2022 13:50 11,4 C 10,0 C 6,7 C 93 % 1011,9 hPa 0,0 l/m 0 min 2 min 79 W/m 22,5 km/h (4 Bft) 97,83 %
20.12.2022 13:52 11,4 C 10,0 C 6,7 C 93 % 1011,8 hPa 0,0 l/m 0 min 2 min 70 W/m 25,7 km/h (4 Bft) 97,87 %
20.12.2022 13:54 11,4 C 10,0 C 6,7 C 93 % 1011,9 hPa 0,0 l/m 0 min 2 min 58 W/m 22,5 km/h (4 Bft) 97,87 %
20.12.2022 13:56 11,3 C 10,0 C 6,7 C 94 % 1011,9 hPa 0,0 l/m 0 min 2 min 45 W/m 22,5 km/h (4 Bft) 95,74 %
20.12.2022 13:58 11,3 C 10,0 C 6,7 C 94 % 1011,8 hPa 0,0 l/m 0 min 2 min 40 W/m 25,7 km/h (4 Bft) 97,87 %
20.12.2022 14:00 11,3 C 10,0 C 6,7 C 94 % 1011,8 hPa 0,0 l/m 0 min 2 min 39 W/m 16,1 km/h (3 Bft) 95,74 %
20.12.2022 14:02 11,3 C 10,0 C 6,7 C 94 % 1011,9 hPa 0,0 l/m 0 min 2 min 35 W/m 29,0 km/h (5 Bft) 91,30 %
20.12.2022 14:04 11,2 C 10,0 C 6,7 C 94 % 1011,8 hPa 0,2 l/m 0 min 2 min 36 W/m 12,9 km/h (3 Bft) 97,87 %
20.12.2022 14:06 11,2 C 10,0 C 6,7 C 94 % 1011,8 hPa 0,0 l/m 0 min 2 min 36 W/m 29,0 km/h (5 Bft) 95,83 %
20.12.2022 14:08 11,2 C 10,0 C 6,7 C 95 % 1011,8 hPa 0,0 l/m 0 min 2 min 34 W/m 25,7 km/h (4 Bft) 91,78 %
20.12.2022 14:10 11,1 C 10,0 C 6,7 C 95 % 1011,8 hPa 0,0 l/m 0 min 2 min 29 W/m 25,7 km/h (4 Bft) 95,74 %
20.12.2022 14:12 11,1 C 10,0 C 6,7 C 95 % 1011,8 hPa 0,0 l/m 0 min 2 min 26 W/m 22,5 km/h (4 Bft) 95,74 %
20.12.2022 14:14 11,1 C 10,0 C 6,7 C 95 % 1011,7 hPa 0,0 l/m 0 min 2 min 25 W/m 22,5 km/h (4 Bft) 93,48 %
20.12.2022 14:16 11,0 C 10,0 C 6,7 C 95 % 1011,8 hPa 0,2 l/m 0 min 2 min 22 W/m 22,5 km/h (4 Bft) 91,49 %
20.12.2022 14:18 11,0 C 10,0 C 6,7 C 95 % 1011,7 hPa 0,0 l/m 0 min 2 min 23 W/m 19,3 km/h (3 Bft) 93,62 %
20.12.2022 14:20 10,9 C 10,0 C 6,7 C 95 % 1011,6 hPa 0,0 l/m 0 min 0 min 27 W/m 19,3 km/h (3 Bft) 91,49 %
20.12.2022 14:22 10,9 C 10,0 C 6,7 C 95 % 1011,6 hPa 0,0 l/m 0 min 0 min 33 W/m 12,9 km/h (3 Bft) 93,62 %
20.12.2022 14:24 10,9 C 10,0 C 6,7 C 95 % 1011,6 hPa 0,0 l/m 0 min 0 min 33 W/m 19,3 km/h (3 Bft) 95,74 %
20.12.2022 14:26 10,9 C 10,0 C 6,7 C 95 % 1011,6 hPa 0,0 l/m 0 min 0 min 33 W/m 16,1 km/h (3 Bft) 95,74 %
20.12.2022 14:28 10,9 C 10,0 C 6,7 C 95 % 1011,6 hPa 0,0 l/m 0 min 0 min 31 W/m 16,1 km/h (3 Bft) 93,48 %
20.12.2022 14:30 10,9 C 10,0 C 6,7 C 95 % 1011,6 hPa 0,0 l/m 0 min 0 min 25 W/m 22,5 km/h (4 Bft) 95,74 %
20.12.2022 14:32 10,9 C 10,0 C 6,7 C 95 % 1011,7 hPa 0,0 l/m 0 min 0 min 19 W/m 22,5 km/h (4 Bft) 95,74 %
20.12.2022 14:34 10,8 C 10,0 C 6,7 C 95 % 1011,8 hPa 0,0 l/m 0 min 0 min 12 W/m 19,3 km/h (3 Bft) 95,74 %
20.12.2022 14:36 10,8 C 10,0 C 6,7 C 95 % 1011,7 hPa 0,0 l/m 0 min 0 min 11 W/m 16,1 km/h (3 Bft) 95,74 %
20.12.2022 14:38 10,8 C 10,0 C 6,7 C 95 % 1011,8 hPa 0,0 l/m 0 min 0 min 12 W/m 19,3 km/h (3 Bft) 95,74 %
20.12.2022 14:40 10,8 C 10,0 C 6,7 C 96 % 1011,9 hPa 0,0 l/m 0 min 2 min 12 W/m 19,3 km/h (3 Bft) 95,65 %
20.12.2022 14:42 10,8 C 10,0 C 6,7 C 96 % 1011,9 hPa 0,0 l/m 0 min 2 min 13 W/m 16,1 km/h (3 Bft) 93,62 %
20.12.2022 14:44 10,8 C 10,0 C 6,7 C 96 % 1011,9 hPa 0,2 l/m 0 min 2 min 15 W/m 16,1 km/h (3 Bft) 93,62 %
20.12.2022 14:46 10,8 C 9,4 C 6,7 C 96 % 1011,9 hPa 0,0 l/m 0 min 2 min 17 W/m 25,7 km/h (4 Bft) 93,62 %
20.12.2022 14:48 10,8 C 9,4 C 6,7 C 96 % 1011,8 hPa 0,2 l/m 0 min 2 min 18 W/m 16,1 km/h (3 Bft) 97,87 %
20.12.2022 14:50 10,8 C 9,4 C 6,7 C 96 % 1011,8 hPa 0,0 l/m 0 min 2 min 18 W/m 22,5 km/h (4 Bft) 97,87 %
20.12.2022 14:52 10,8 C 9,4 C 6,7 C 96 % 1011,8 hPa 0,0 l/m 0 min 2 min 18 W/m 19,3 km/h (3 Bft) 95,65 %
20.12.2022 14:54 10,8 C 9,4 C 6,7 C 96 % 1011,8 hPa 0,2 l/m 0 min 2 min 16 W/m 19,3 km/h (3 Bft) 100,00 %
20.12.2022 14:56 10,8 C 9,4 C 6,7 C 96 % 1011,8 hPa 0,0 l/m 0 min 2 min 14 W/m 25,7 km/h (4 Bft) 100,00 %
20.12.2022 14:58 10,7 C 9,4 C 6,7 C 96 % 1011,8 hPa 0,0 l/m 0 min 2 min 13 W/m 19,3 km/h (3 Bft) 100,00 %
20.12.2022 15:00 10,7 C 9,4 C 6,7 C 96 % 1011,7 hPa 0,2 l/m 0 min 2 min 12 W/m 16,1 km/h (3 Bft) 100,00 %
20.12.2022 15:02 10,7 C 9,4 C 6,7 C 96 % 1011,8 hPa 0,0 l/m 0 min 2 min 11 W/m 16,1 km/h (3 Bft) 97,87 %
20.12.2022 15:04 10,7 C 9,4 C 6,7 C 96 % 1011,7 hPa 0,0 l/m 0 min 2 min 11 W/m 16,1 km/h (3 Bft) 100,00 %
20.12.2022 15:06 10,7 C 9,4 C 6,7 C 96 % 1011,8 hPa 0,0 l/m 0 min 2 min 11 W/m 16,1 km/h (3 Bft) 97,83 %
20.12.2022 15:08 10,7 C 9,4 C 6,1 C 96 % 1011,7 hPa 0,2 l/m 0 min 2 min 10 W/m 12,9 km/h (3 Bft) 100,00 %
20.12.2022 15:10 10,7 C 9,4 C 6,1 C 96 % 1011,8 hPa 0,0 l/m 0 min 2 min 10 W/m 16,1 km/h (3 Bft) 97,14 %
20.12.2022 15:12 10,7 C 9,4 C 6,7 C 96 % 1011,7 hPa 0,0 l/m 0 min 2 min 11 W/m 16,1 km/h (3 Bft) 96,61 %
20.12.2022 15:14 10,6 C 9,4 C 6,1 C 96 % 1011,8 hPa 0,0 l/m 0 min 2 min 12 W/m 16,1 km/h (3 Bft) 100,00 %
20.12.2022 15:16 10,6 C 9,4 C 6,1 C 96 % 1011,8 hPa 0,2 l/m 0 min 2 min 15 W/m 16,1 km/h (3 Bft) 100,00 %
20.12.2022 15:18 10,6 C 9,4 C 6,1 C 96 % 1011,7 hPa 0,0 l/m 0 min 2 min 16 W/m 22,5 km/h (4 Bft) 100,00 %
20.12.2022 15:20 10,6 C 9,4 C 6,7 C 96 % 1011,7 hPa 0,0 l/m 0 min 2 min 16 W/m 19,3 km/h (3 Bft) 97,87 %
20.12.2022 15:22 10,6 C 9,4 C 6,1 C 96 % 1011,8 hPa 0,0 l/m 0 min 2 min 18 W/m 9,7 km/h (2 Bft) 100,00 %
20.12.2022 15:24 10,6 C 9,4 C 6,7 C 96 % 1011,7 hPa 0,0 l/m 0 min 0 min 19 W/m 12,9 km/h (3 Bft) 100,00 %
20.12.2022 15:26 10,6 C 9,4 C 6,7 C 96 % 1011,7 hPa 0,0 l/m 0 min 2 min 18 W/m 22,5 km/h (4 Bft) 100,00 %
20.12.2022 15:28 10,6 C 9,4 C 6,7 C 96 % 1011,7 hPa 0,0 l/m 0 min 2 min 15 W/m 12,9 km/h (3 Bft) 97,87 %
20.12.2022 15:30 10,6 C 9,4 C 6,7 C 96 % 1011,6 hPa 0,0 l/m 0 min 2 min 12 W/m 16,1 km/h (3 Bft) 100,00 %
20.12.2022 15:32 10,6 C 9,4 C 6,7 C 96 % 1011,6 hPa 0,0 l/m 0 min 0 min 14 W/m 12,9 km/h (3 Bft) 100,00 %
20.12.2022 15:34 10,6 C 9,4 C 6,7 C 96 % 1011,6 hPa 0,0 l/m 0 min 2 min 14 W/m 12,9 km/h (3 Bft) 100,00 %
20.12.2022 15:36 10,6 C 9,4 C 6,7 C 96 % 1011,6 hPa 0,0 l/m 0 min 2 min 14 W/m 16,1 km/h (3 Bft) 100,00 %
20.12.2022 15:38 10,6 C 9,4 C 6,7 C 96 % 1011,5 hPa 0,0 l/m 0 min 2 min 12 W/m 16,1 km/h (3 Bft) 97,87 %
20.12.2022 15:40 10,6 C 9,4 C 6,7 C 96 % 1011,5 hPa 0,2 l/m 0 min 2 min 11 W/m 12,9 km/h (3 Bft) 100,00 %
20.12.2022 15:42 10,6 C 9,4 C 6,7 C 96 % 1011,6 hPa 0,0 l/m 0 min 2 min 7 W/m 16,1 km/h (3 Bft) 97,87 %
20.12.2022 15:44 10,6 C 9,4 C 6,7 C 96 % 1011,6 hPa 0,0 l/m 0 min 2 min 5 W/m 16,1 km/h (3 Bft) 100,00 %
20.12.2022 15:46 10,6 C 9,4 C 6,1 C 96 % 1011,6 hPa 0,0 l/m 0 min 2 min 3 W/m 22,5 km/h (4 Bft) 100,00 %
20.12.2022 15:48 10,6 C 9,4 C 6,1 C 96 % 1011,6 hPa 0,0 l/m 0 min 2 min 0 W/m 9,7 km/h (2 Bft) 100,00 %
20.12.2022 15:50 10,6 C 9,4 C 6,1 C 96 % 1011,5 hPa 0,0 l/m 0 min 2 min 0 W/m 12,9 km/h (3 Bft) 100,00 %
20.12.2022 15:52 10,6 C 9,4 C 6,1 C 96 % 1011,4 hPa 0,0 l/m 0 min 2 min 0 W/m 0,0 km/h (0 Bft) 100,00 %
20.12.2022 15:54 10,6 C 9,4 C 6,1 C 96 % 1011,4 hPa 0,2 l/m 0 min 2 min 5 W/m 19,3 km/h (3 Bft) 100,00 %
20.12.2022 15:56 10,6 C 9,4 C 6,1 C 96 % 1011,4 hPa 0,0 l/m 0 min 2 min 8 W/m 16,1 km/h (3 Bft) 97,87 %
20.12.2022 15:58 10,6 C 9,4 C 6,1 C 96 % 1011,5 hPa 0,0 l/m 0 min 2 min 8 W/m 16,1 km/h (3 Bft) 100,00 %
20.12.2022 16:00 10,6 C 9,4 C 6,1 C 96 % 1011,4 hPa 0,0 l/m 0 min 2 min 5 W/m 19,3 km/h (3 Bft) 95,74 %
20.12.2022 16:02 10,6 C 10,0 C 6,1 C 96 % 1011,4 hPa 0,0 l/m 0 min 2 min 0 W/m 12,9 km/h (3 Bft) 100,00 %
20.12.2022 16:04 10,6 C 10,0 C 6,1 C 96 % 1011,4 hPa 0,0 l/m 0 min 2 min 0 W/m 12,9 km/h (3 Bft) 100,00 %
20.12.2022 16:06 10,6 C 9,4 C 6,1 C 96 % 1011,4 hPa 0,0 l/m 0 min 2 min 0 W/m 9,7 km/h (2 Bft) 100,00 %
20.12.2022 16:08 10,6 C 9,4 C 6,1 C 96 % 1011,4 hPa 0,0 l/m 0 min 2 min 0 W/m 12,9 km/h (3 Bft) 95,74 %
20.12.2022 16:10 10,6 C 9,4 C 6,1 C 96 % 1011,3 hPa 0,0 l/m 0 min 2 min 0 W/m 16,1 km/h (3 Bft) 95,65 %
20.12.2022 16:12 10,6 C 9,4 C 6,1 C 95 % 1011,3 hPa 0,0 l/m 0 min 2 min 0 W/m 16,1 km/h (3 Bft) 97,87 %
20.12.2022 16:14 10,6 C 9,4 C 6,1 C 95 % 1011,2 hPa 0,2 l/m 0 min 2 min 0 W/m 12,9 km/h (3 Bft) 93,62 %
20.12.2022 16:16 10,6 C 9,4 C 6,1 C 96 % 1011,2 hPa 0,0 l/m 0 min 2 min 0 W/m 6,4 km/h (2 Bft) 95,74 %
20.12.2022 16:18 10,6 C 9,4 C 6,1 C 96 % 1011,2 hPa 0,0 l/m 0 min 2 min 0 W/m 3,2 km/h (1 Bft) 95,74 %
20.12.2022 16:20 10,6 C 9,4 C 6,1 C 96 % 1011,2 hPa 0,0 l/m 0 min 2 min 0 W/m 6,4 km/h (2 Bft) 95,74 %
20.12.2022 16:22 10,6 C 9,4 C 6,1 C 96 % 1011,2 hPa 0,0 l/m 0 min 2 min 0 W/m 6,4 km/h (2 Bft) 93,62 %
20.12.2022 16:24 10,6 C 9,4 C 6,1 C 95 % 1011,2 hPa 0,0 l/m 0 min 2 min 0 W/m 6,4 km/h (2 Bft) 95,65 %
20.12.2022 16:26 10,6 C 9,4 C 6,1 C 95 % 1011,2 hPa 0,2 l/m 0 min 2 min 0 W/m 6,4 km/h (2 Bft) 93,62 %
20.12.2022 16:28 10,5 C 9,4 C 6,1 C 95 % 1011,2 hPa 0,0 l/m 0 min 2 min 0 W/m 6,4 km/h (2 Bft) 93,62 %
20.12.2022 16:30 10,5 C 9,4 C 6,1 C 95 % 1011,2 hPa 0,0 l/m 0 min 2 min 0 W/m 9,7 km/h (2 Bft) 95,74 %
20.12.2022 16:32 10,5 C 9,4 C 6,1 C 95 % 1011,2 hPa 0,0 l/m 0 min 2 min 0 W/m 6,4 km/h (2 Bft) 95,74 %
20.12.2022 16:34 10,4 C 9,4 C 6,1 C 95 % 1011,2 hPa 0,0 l/m 0 min 2 min 0 W/m 6,4 km/h (2 Bft) 95,74 %
20.12.2022 16:36 10,4 C 9,4 C 6,1 C 95 % 1011,2 hPa 0,0 l/m 0 min 2 min 0 W/m 9,7 km/h (2 Bft) 95,65 %
20.12.2022 16:38 10,4 C 9,4 C 6,1 C 95 % 1011,3 hPa 0,0 l/m 0 min 2 min 0 W/m 12,9 km/h (3 Bft) 95,74 %
20.12.2022 16:40 10,4 C 9,4 C 6,1 C 95 % 1011,3 hPa 0,0 l/m 0 min 2 min 0 W/m 9,7 km/h (2 Bft) 93,62 %
20.12.2022 16:42 10,4 C 9,4 C 6,1 C 95 % 1011,3 hPa 0,0 l/m 0 min 2 min 0 W/m 12,9 km/h (3 Bft) 95,74 %
20.12.2022 16:44 10,3 C 9,4 C 6,1 C 95 % 1011,2 hPa 0,0 l/m 0 min 2 min 0 W/m 12,9 km/h (3 Bft) 97,87 %
20.12.2022 16:46 10,3 C 8,9 C 6,1 C 95 % 1011,3 hPa 0,0 l/m 0 min 2 min 0 W/m 6,4 km/h (2 Bft) 97,87 %
20.12.2022 16:48 10,3 C 8,9 C 6,1 C 95 % 1011,2 hPa 0,0 l/m 0 min 0 min 0 W/m 3,2 km/h (1 Bft) 97,83 %
20.12.2022 16:50 10,2 C 8,9 C 6,1 C 95 % 1011,2 hPa 0,0 l/m 0 min 2 min 0 W/m 12,9 km/h (3 Bft) 97,87 %
20.12.2022 16:52 10,2 C 8,9 C 6,1 C 95 % 1011,3 hPa 0,0 l/m 0 min 2 min 0 W/m 3,2 km/h (1 Bft) 97,87 %
20.12.2022 16:54 10,2 C 8,9 C 6,1 C 95 % 1011,2 hPa 0,0 l/m 0 min 0 min 0 W/m 6,4 km/h (2 Bft) 97,87 %
20.12.2022 16:56 10,1 C 8,9 C 6,1 C 95 % 1011,2 hPa 0,0 l/m 0 min 2 min 0 W/m 6,4 km/h (2 Bft) 97,87 %
20.12.2022 16:58 10,1 C 8,9 C 6,1 C 95 % 1011,2 hPa 0,0 l/m 0 min 2 min 0 W/m 3,2 km/h (1 Bft) 97,87 %
20.12.2022 17:00 10,1 C 8,9 C 6,1 C 95 % 1011,2 hPa 0,0 l/m 0 min 0 min 0 W/m 6,4 km/h (2 Bft) 97,87 %
20.12.2022 17:02 10,1 C 8,9 C 6,1 C 95 % 1011,2 hPa 0,0 l/m 0 min 0 min 0 W/m 6,4 km/h (2 Bft) 100,00 %
20.12.2022 17:04 10,1 C 8,9 C 5,6 C 95 % 1011,2 hPa 0,0 l/m 0 min 2 min 0 W/m 6,4 km/h (2 Bft) 97,87 %
20.12.2022 17:06 10,0 C 8,9 C 5,6 C 95 % 1011,1 hPa 0,0 l/m 0 min 2 min 0 W/m 9,7 km/h (2 Bft) 97,87 %
20.12.2022 17:08 10,0 C 8,9 C 6,1 C 95 % 1011,1 hPa 0,0 l/m 0 min 2 min 0 W/m 6,4 km/h (2 Bft) 97,87 %
20.12.2022 17:10 10,0 C 8,9 C 6,1 C 95 % 1011,1 hPa 0,0 l/m 0 min 2 min 0 W/m 6,4 km/h (2 Bft) 95,74 %
20.12.2022 17:12 10,0 C 8,9 C 6,1 C 96 % 1011,1 hPa 0,2 l/m 0 min 2 min 0 W/m 6,4 km/h (2 Bft) 95,74 %
20.12.2022 17:14 10,0 C 8,9 C 5,6 C 96 % 1011,1 hPa 0,0 l/m 0 min 2 min 0 W/m 6,4 km/h (2 Bft) 97,83 %
20.12.2022 17:16 10,0 C 8,9 C 5,6 C 96 % 1011,1 hPa 0,0 l/m 0 min 2 min 0 W/m 9,7 km/h (2 Bft) 95,74 %
20.12.2022 17:18 9,9 C 8,9 C 5,6 C 96 % 1011,2 hPa 0,0 l/m 0 min 2 min 0 W/m 6,4 km/h (2 Bft) 98,00 %
20.12.2022 17:20 9,9 C 8,9 C 5,6 C 96 % 1011,2 hPa 0,0 l/m 0 min 2 min 0 W/m 6,4 km/h (2 Bft) 97,14 %
20.12.2022 17:22 9,9 C 8,9 C 6,1 C 96 % 1011,2 hPa 0,0 l/m 0 min 2 min 0 W/m 6,4 km/h (2 Bft) 93,62 %
20.12.2022 17:24 9,9 C 8,9 C 5,6 C 96 % 1011,2 hPa 0,2 l/m 0 min 2 min 0 W/m 3,2 km/h (1 Bft) 97,87 %
20.12.2022 17:26 9,9 C 8,9 C 5,6 C 96 % 1011,2 hPa 0,0 l/m 0 min 2 min 0 W/m 3,2 km/h (1 Bft) 97,87 %
20.12.2022 17:28 9,9 C 8,9 C 5,6 C 96 % 1011,2 hPa 0,0 l/m 0 min 2 min 0 W/m 3,2 km/h (1 Bft) 95,74 %
20.12.2022 17:30 9,9 C 8,9 C 5,6 C 96 % 1011,2 hPa 0,0 l/m 0 min 2 min 0 W/m 3,2 km/h (1 Bft) 95,65 %
20.12.2022 17:32 9,9 C 8,9 C 5,6 C 96 % 1011,1 hPa 0,0 l/m 0 min 2 min 0 W/m 3,2 km/h (1 Bft) 97,87 %
20.12.2022 17:34 9,9 C 8,9 C 5,6 C 96 % 1011,1 hPa 0,0 l/m 0 min 2 min 0 W/m 6,4 km/h (2 Bft) 95,74 %
20.12.2022 17:36 9,9 C 8,9 C 5,6 C 96 % 1011,1 hPa 0,0 l/m 0 min 2 min 0 W/m 3,2 km/h (1 Bft) 97,87 %
20.12.2022 17:38 9,9 C 8,9 C 5,6 C 96 % 1011,1 hPa 0,0 l/m 0 min 2 min 0 W/m 3,2 km/h (1 Bft) 97,87 %
20.12.2022 17:40 9,8 C 8,9 C 5,6 C 96 % 1011,1 hPa 0,0 l/m 0 min 2 min 0 W/m 6,4 km/h (2 Bft) 95,74 %
20.12.2022 17:42 9,8 C 8,9 C 5,6 C 96 % 1011,1 hPa 0,0 l/m 0 min 0 min 0 W/m 3,2 km/h (1 Bft) 97,83 %
20.12.2022 17:44 9,8 C 8,9 C 5,6 C 96 % 1011,2 hPa 0,0 l/m 0 min 0 min 0 W/m 3,2 km/h (1 Bft) 97,87 %
20.12.2022 17:46 9,8 C 8,9 C 5,6 C 96 % 1011,1 hPa 0,0 l/m 0 min 2 min 0 W/m 3,2 km/h (1 Bft) 95,74 %
20.12.2022 17:48 9,8 C 8,9 C 5,6 C 96 % 1011,1 hPa 0,0 l/m 0 min 0 min 0 W/m 3,2 km/h (1 Bft) 95,74 %
20.12.2022 17:50 9,8 C 8,9 C 5,6 C 96 % 1011,1 hPa 0,0 l/m 0 min 0 min 0 W/m 3,2 km/h (1 Bft) 97,87 %
20.12.2022 17:52 9,8 C 8,9 C 5,6 C 96 % 1011,1 hPa 0,0 l/m 0 min 0 min 0 W/m 3,2 km/h (1 Bft) 95,74 %
20.12.2022 17:54 9,8 C 8,9 C 5,6 C 96 % 1011,1 hPa 0,0 l/m 0 min 0 min 0 W/m 3,2 km/h (1 Bft) 100,00 %
20.12.2022 17:56 9,8 C 8,9 C 5,6 C 96 % 1011,1 hPa 0,0 l/m 0 min 0 min 0 W/m 3,2 km/h (1 Bft) 97,83 %
20.12.2022 17:58 9,8 C 8,9 C 5,6 C 96 % 1011,2 hPa 0,0 l/m 0 min 0 min 0 W/m 6,4 km/h (2 Bft) 97,87 %
20.12.2022 18:00 9,8 C 8,9 C 5,6 C 96 % 1011,1 hPa 0,0 l/m 0 min 0 min 0 W/m 6,4 km/h (2 Bft) 100,00 %
20.12.2022 18:02 9,8 C 8,9 C 5,6 C 96 % 1011,2 hPa 0,0 l/m 0 min 2 min 0 W/m 3,2 km/h (1 Bft) 95,74 %
20.12.2022 18:04 9,8 C 8,9 C 5,6 C 96 % 1011,2 hPa 0,0 l/m 0 min 2 min 0 W/m 6,4 km/h (2 Bft) 95,74 %
20.12.2022 18:08 9,8 C 8,9 C 5,6 C 96 % 1011,1 hPa 0,0 l/m 0 min 4 min 0 W/m 6,4 km/h (2 Bft) 97,85 %
20.12.2022 18:10 9,8 C 8,9 C 5,6 C 96 % 1011,1 hPa 0,0 l/m 0 min 2 min 0 W/m 6,4 km/h (2 Bft) 91,49 %
20.12.2022 18:12 9,8 C 8,9 C 5,6 C 96 % 1011,0 hPa 0,0 l/m 0 min 2 min 0 W/m 3,2 km/h (1 Bft) 97,87 %
20.12.2022 18:14 9,8 C 8,9 C 5,6 C 96 % 1011,1 hPa 0,2 l/m 0 min 2 min 0 W/m 3,2 km/h (1 Bft) 97,87 %
20.12.2022 18:16 9,8 C 8,9 C 5,6 C 96 % 1011,1 hPa 0,0 l/m 0 min 2 min 0 W/m 3,2 km/h (1 Bft) 95,74 %
20.12.2022 18:18 9,8 C 8,9 C 5,6 C 96 % 1011,1 hPa 0,0 l/m 0 min 2 min 0 W/m 3,2 km/h (1 Bft) 97,87 %
20.12.2022 18:20 9,7 C 8,9 C 6,1 C 96 % 1011,1 hPa 0,0 l/m 0 min 0 min 0 W/m 6,4 km/h (2 Bft) 97,83 %
20.12.2022 18:22 9,8 C 8,9 C 5,6 C 96 % 1011,0 hPa 0,0 l/m 0 min 0 min 0 W/m 3,2 km/h (1 Bft) 93,62 %
20.12.2022 18:24 9,8 C 8,9 C 5,6 C 96 % 1011,0 hPa 0,0 l/m 0 min 0 min 0 W/m 6,4 km/h (2 Bft) 97,87 %
20.12.2022 18:26 9,7 C 8,9 C 6,1 C 96 % 1011,1 hPa 0,0 l/m 0 min 0 min 0 W/m 3,2 km/h (1 Bft) 97,87 %
20.12.2022 18:28 9,7 C 8,9 C 5,6 C 96 % 1011,0 hPa 0,0 l/m 0 min 0 min 0 W/m 6,4 km/h (2 Bft) 91,49 %
20.12.2022 18:30 9,7 C 8,9 C 5,6 C 96 % 1011,0 hPa 0,0 l/m 0 min 0 min 0 W/m 6,4 km/h (2 Bft) 97,87 %
20.12.2022 18:32 9,7 C 8,9 C 6,1 C 96 % 1010,9 hPa 0,0 l/m 0 min 0 min 0 W/m 6,4 km/h (2 Bft) 97,87 %
20.12.2022 18:34 9,7 C 8,9 C 5,6 C 96 % 1010,9 hPa 0,0 l/m 0 min 0 min 0 W/m 6,4 km/h (2 Bft) 97,83 %
20.12.2022 18:36 9,7 C 8,9 C 6,1 C 96 % 1010,9 hPa 0,0 l/m 0 min 0 min 0 W/m 9,7 km/h (2 Bft) 97,87 %
20.12.2022 18:38 9,7 C 8,9 C 6,1 C 96 % 1011,0 hPa 0,0 l/m 0 min 0 min 0 W/m 3,2 km/h (1 Bft) 97,87 %
20.12.2022 18:40 9,7 C 8,9 C 6,1 C 96 % 1010,9 hPa 0,0 l/m 0 min 0 min 0 W/m 6,4 km/h (2 Bft) 100,00 %
20.12.2022 18:42 9,7 C 8,9 C 6,1 C 96 % 1011,0 hPa 0,0 l/m 0 min 0 min 0 W/m 9,7 km/h (2 Bft) 97,87 %
20.12.2022 18:44 9,7 C 8,9 C 6,1 C 96 % 1010,9 hPa 0,0 l/m 0 min 0 min 0 W/m 12,9 km/h (3 Bft) 97,87 %
20.12.2022 18:46 9,7 C 8,9 C 6,1 C 96 % 1010,9 hPa 0,0 l/m 0 min 0 min 0 W/m 6,4 km/h (2 Bft) 97,83 %
20.12.2022 18:48 9,7 C 8,9 C 6,1 C 96 % 1010,9 hPa 0,0 l/m 0 min 0 min 0 W/m 6,4 km/h (2 Bft) 97,87 %
20.12.2022 18:50 9,7 C 8,9 C 6,1 C 96 % 1010,9 hPa 0,0 l/m 0 min 0 min 0 W/m 0,0 km/h (0 Bft) 97,87 %
20.12.2022 18:52 9,7 C 8,9 C 6,1 C 96 % 1010,9 hPa 0,0 l/m 0 min 0 min 0 W/m 0,0 km/h (0 Bft) 97,87 %
20.12.2022 18:54 9,7 C 8,9 C 6,1 C 96 % 1010,8 hPa 0,0 l/m 0 min 0 min 0 W/m 0,0 km/h (0 Bft) 95,74 %
20.12.2022 18:56 9,7 C 8,9 C 6,1 C 96 % 1010,9 hPa 0,0 l/m 0 min 0 min 0 W/m 0,0 km/h (0 Bft) 95,74 %
20.12.2022 18:58 9,7 C 8,9 C 6,1 C 96 % 1010,8 hPa 0,0 l/m 0 min 2 min 0 W/m 0,0 km/h (0 Bft) 97,87 %
20.12.2022 19:00 9,7 C 8,9 C 6,1 C 96 % 1010,8 hPa 0,0 l/m 0 min 2 min 0 W/m 0,0 km/h (0 Bft) 95,65 %
20.12.2022 19:02 9,7 C 8,9 C 6,1 C 96 % 1010,8 hPa 0,0 l/m 0 min 2 min 0 W/m 0,0 km/h (0 Bft) 97,87 %
20.12.2022 19:04 9,7 C 8,9 C 6,1 C 96 % 1010,8 hPa 0,0 l/m 0 min 2 min 0 W/m 0,0 km/h (0 Bft) 97,87 %
20.12.2022 19:06 9,7 C 8,9 C 6,1 C 96 % 1010,9 hPa 0,0 l/m 0 min 0 min 0 W/m 0,0 km/h (0 Bft) 93,62 %
20.12.2022 19:08 9,7 C 8,9 C 6,1 C 96 % 1010,8 hPa 0,0 l/m 0 min 0 min 0 W/m 3,2 km/h (1 Bft) 97,87 %
20.12.2022 19:10 9,7 C 8,9 C 6,1 C 96 % 1010,9 hPa 0,0 l/m 0 min 2 min 0 W/m 6,4 km/h (2 Bft) 97,87 %
20.12.2022 19:12 9,7 C 8,9 C 6,1 C 96 % 1010,9 hPa 0,0 l/m 0 min 2 min 0 W/m 6,4 km/h (2 Bft) 97,83 %
20.12.2022 19:14 9,7 C 8,9 C 6,1 C 96 % 1010,9 hPa 0,0 l/m 0 min 2 min 0 W/m 6,4 km/h (2 Bft) 97,87 %
20.12.2022 19:16 9,7 C 8,9 C 6,1 C 96 % 1010,9 hPa 0,0 l/m 0 min 2 min 0 W/m 3,2 km/h (1 Bft) 97,87 %
20.12.2022 19:18 9,7 C 8,9 C 6,1 C 96 % 1010,9 hPa 0,0 l/m 0 min 2 min 0 W/m 9,7 km/h (2 Bft) 97,87 %
20.12.2022 19:20 9,7 C 8,9 C 6,1 C 96 % 1011,0 hPa 0,0 l/m 0 min 2 min 0 W/m 6,4 km/h (2 Bft) 97,87 %
20.12.2022 19:22 9,7 C 8,9 C 6,1 C 96 % 1010,9 hPa 0,0 l/m 0 min 2 min 0 W/m 6,4 km/h (2 Bft) 97,87 %
20.12.2022 19:24 9,7 C 8,9 C 6,1 C 96 % 1011,0 hPa 0,2 l/m 0 min 2 min 0 W/m 3,2 km/h (1 Bft) 97,83 %
20.12.2022 19:26 9,7 C 8,9 C 6,1 C 96 % 1011,0 hPa 0,0 l/m 0 min 2 min 0 W/m 3,2 km/h (1 Bft) 97,87 %
20.12.2022 19:28 9,7 C 8,9 C 6,1 C 97 % 1011,0 hPa 0,0 l/m 0 min 2 min 0 W/m 6,4 km/h (2 Bft) 97,87 %
20.12.2022 19:30 9,7 C 8,9 C 6,1 C 97 % 1011,0 hPa 0,0 l/m 0 min 2 min 0 W/m 9,7 km/h (2 Bft) 95,74 %
20.12.2022 19:32 9,7 C 8,9 C 6,1 C 97 % 1011,0 hPa 0,0 l/m 0 min 2 min 0 W/m 9,7 km/h (2 Bft) 100,00 %
20.12.2022 19:34 9,7 C 8,9 C 6,1 C 97 % 1010,9 hPa 0,0 l/m 0 min 2 min 0 W/m 9,7 km/h (2 Bft) 100,00 %
20.12.2022 19:36 9,7 C 8,9 C 6,1 C 97 % 1010,9 hPa 0,0 l/m 0 min 2 min 0 W/m 3,2 km/h (1 Bft) 97,83 %
20.12.2022 19:38 9,7 C 8,9 C 6,1 C 97 % 1011,0 hPa 0,2 l/m 0 min 2 min 0 W/m 6,4 km/h (2 Bft) 100,00 %
20.12.2022 19:40 9,7 C 8,9 C 6,1 C 97 % 1011,0 hPa 0,0 l/m 0 min 2 min 0 W/m 6,4 km/h (2 Bft) 97,87 %
20.12.2022 19:42 9,7 C 8,9 C 6,1 C 97 % 1011,0 hPa 0,0 l/m 0 min 2 min 0 W/m 6,4 km/h (2 Bft) 97,87 %
20.12.2022 19:44 9,7 C 8,9 C 6,1 C 97 % 1011,0 hPa 0,0 l/m 0 min 2 min 0 W/m 3,2 km/h (1 Bft) 97,87 %
20.12.2022 19:46 9,7 C 8,9 C 6,1 C 97 % 1011,0 hPa 0,0 l/m 0 min 2 min 0 W/m 3,2 km/h (1 Bft) 100,00 %
20.12.2022 19:48 9,6 C 8,9 C 6,1 C 97 % 1011,0 hPa 0,0 l/m 0 min 2 min 0 W/m 9,7 km/h (2 Bft) 97,87 %
20.12.2022 19:50 9,6 C 8,9 C 6,1 C 97 % 1011,0 hPa 0,0 l/m 0 min 2 min 0 W/m 6,4 km/h (2 Bft) 100,00 %
20.12.2022 19:52 9,7 C 8,9 C 6,1 C 97 % 1011,0 hPa 0,2 l/m 0 min 2 min 0 W/m 6,4 km/h (2 Bft) 100,00 %
20.12.2022 19:54 9,6 C 8,3 C 6,1 C 97 % 1011,0 hPa 0,0 l/m 0 min 2 min 0 W/m 3,2 km/h (1 Bft) 100,00 %
20.12.2022 19:56 9,6 C 8,3 C 6,1 C 97 % 1011,0 hPa 0,0 l/m 0 min 2 min 0 W/m 3,2 km/h (1 Bft) 100,00 %
20.12.2022 19:58 9,6 C 8,3 C 6,1 C 97 % 1011,1 hPa 0,0 l/m 0 min 2 min 0 W/m 0,0 km/h (0 Bft) 98,00 %
20.12.2022 20:00 9,6 C 8,3 C 6,1 C 97 % 1011,0 hPa 0,0 l/m 0 min 2 min 0 W/m 3,2 km/h (1 Bft) 97,87 %
20.12.2022 20:02 9,6 C 8,3 C 6,1 C 97 % 1011,1 hPa 0,0 l/m 0 min 0 min 0 W/m 0,0 km/h (0 Bft) 100,00 %
20.12.2022 20:04 9,6 C 8,3 C 6,1 C 97 % 1011,0 hPa 0,0 l/m 0 min 2 min 0 W/m 0,0 km/h (0 Bft) 95,65 %
20.12.2022 20:06 9,6 C 8,3 C 6,1 C 97 % 1011,0 hPa 0,0 l/m 0 min 0 min 0 W/m 3,2 km/h (1 Bft) 95,74 %
20.12.2022 20:08 9,6 C 8,3 C 6,1 C 97 % 1011,0 hPa 0,0 l/m 0 min 0 min 0 W/m 3,2 km/h (1 Bft) 94,92 %
20.12.2022 20:10 9,6 C 8,3 C 6,1 C 97 % 1011,0 hPa 0,0 l/m 0 min 2 min 0 W/m 3,2 km/h (1 Bft) 93,62 %
20.12.2022 20:12 9,6 C 8,3 C 6,1 C 97 % 1010,9 hPa 0,0 l/m 0 min 2 min 0 W/m 3,2 km/h (1 Bft) 95,74 %
20.12.2022 20:14 9,6 C 8,3 C 6,1 C 97 % 1011,0 hPa 0,0 l/m 0 min 2 min 0 W/m 0,0 km/h (0 Bft) 95,65 %
20.12.2022 20:16 9,6 C 8,3 C 6,1 C 97 % 1010,9 hPa 0,0 l/m 0 min 2 min 0 W/m 0,0 km/h (0 Bft) 93,62 %
20.12.2022 20:18 9,6 C 8,3 C 6,1 C 97 % 1010,9 hPa 0,0 l/m 0 min 2 min 0 W/m 3,2 km/h (1 Bft) 93,62 %
20.12.2022 20:20 9,5 C 8,3 C 6,1 C 97 % 1010,9 hPa 0,2 l/m 0 min 2 min 0 W/m 3,2 km/h (1 Bft) 95,74 %
20.12.2022 20:22 9,5 C 8,3 C 5,6 C 97 % 1010,9 hPa 0,0 l/m 0 min 2 min 0 W/m 3,2 km/h (1 Bft) 95,74 %
20.12.2022 20:24 9,5 C 8,3 C 6,1 C 97 % 1010,9 hPa 0,0 l/m 0 min 2 min 0 W/m 0,0 km/h (0 Bft) 95,74 %
20.12.2022 20:26 9,5 C 8,3 C 6,1 C 97 % 1010,9 hPa 0,0 l/m 0 min 2 min 0 W/m 0,0 km/h (0 Bft) 95,65 %
20.12.2022 20:28 9,4 C 8,3 C 5,6 C 97 % 1010,9 hPa 0,0 l/m 0 min 0 min 0 W/m 0,0 km/h (0 Bft) 95,74 %
20.12.2022 20:30 9,4 C 8,3 C 5,6 C 97 % 1010,9 hPa 0,0 l/m 0 min 2 min 0 W/m 0,0 km/h (0 Bft) 95,74 %
20.12.2022 20:32 9,4 C 8,3 C 5,6 C 97 % 1010,9 hPa 0,0 l/m 0 min 2 min 0 W/m 0,0 km/h (0 Bft) 97,87 %
20.12.2022 20:34 9,4 C 8,3 C 5,6 C 97 % 1010,9 hPa 0,0 l/m 0 min 2 min 0 W/m 0,0 km/h (0 Bft) 97,87 %
20.12.2022 20:36 9,4 C 8,3 C 5,6 C 97 % 1010,9 hPa 0,0 l/m 0 min 2 min 0 W/m 6,4 km/h (2 Bft) 97,87 %
20.12.2022 20:38 9,4 C 8,3 C 5,6 C 97 % 1010,8 hPa 0,0 l/m 0 min 2 min 0 W/m 3,2 km/h (1 Bft) 95,74 %
20.12.2022 20:40 9,4 C 8,3 C 5,6 C 97 % 1010,9 hPa 0,0 l/m 0 min 2 min 0 W/m 0,0 km/h (0 Bft) 97,83 %
20.12.2022 20:42 9,4 C 8,3 C 5,6 C 97 % 1010,9 hPa 0,2 l/m 0 min 2 min 0 W/m 0,0 km/h (0 Bft) 97,87 %
20.12.2022 20:44 9,4 C 8,3 C 6,1 C 97 % 1010,9 hPa 0,0 l/m 0 min 2 min 0 W/m 0,0 km/h (0 Bft) 97,87 %
20.12.2022 20:46 9,4 C 8,3 C 6,1 C 97 % 1010,9 hPa 0,0 l/m 0 min 2 min 0 W/m 0,0 km/h (0 Bft) 95,74 %
20.12.2022 20:48 9,4 C 8,3 C 5,6 C 97 % 1010,9 hPa 0,0 l/m 0 min 2 min 0 W/m 6,4 km/h (2 Bft) 97,87 %
20.12.2022 20:50 9,3 C 8,3 C 5,6 C 97 % 1010,8 hPa 0,0 l/m 0 min 2 min 0 W/m 6,4 km/h (2 Bft) 97,87 %
20.12.2022 20:52 9,3 C 8,3 C 6,1 C 97 % 1010,9 hPa 0,0 l/m 0 min 2 min 0 W/m 6,4 km/h (2 Bft) 97,83 %
20.12.2022 20:54 9,3 C 8,3 C 6,1 C 97 % 1010,9 hPa 0,0 l/m 0 min 2 min 0 W/m 6,4 km/h (2 Bft) 100,00 %
20.12.2022 20:56 9,3 C 8,3 C 6,1 C 97 % 1010,9 hPa 0,2 l/m 0 min 2 min 0 W/m 3,2 km/h (1 Bft) 97,87 %
20.12.2022 20:58 9,3 C 8,3 C 5,6 C 97 % 1010,9 hPa 0,0 l/m 0 min 2 min 0 W/m 0,0 km/h (0 Bft) 97,87 %
20.12.2022 21:00 9,3 C 8,3 C 5,6 C 97 % 1010,9 hPa 0,0 l/m 0 min 2 min 0 W/m 0,0 km/h (0 Bft) 97,87 %
20.12.2022 21:02 9,3 C 8,3 C 5,6 C 97 % 1010,9 hPa 0,0 l/m 0 min 2 min 0 W/m 0,0 km/h (0 Bft) 97,87 %
20.12.2022 21:04 9,3 C 8,3 C 5,6 C 97 % 1010,9 hPa 0,0 l/m 0 min 2 min 0 W/m 0,0 km/h (0 Bft) 95,65 %
20.12.2022 21:06 9,2 C 8,3 C 5,6 C 97 % 1010,9 hPa 0,0 l/m 0 min 2 min 0 W/m 0,0 km/h (0 Bft) 97,87 %
20.12.2022 21:08 9,2 C 8,3 C 5,6 C 97 % 1010,9 hPa 0,0 l/m 0 min 2 min 0 W/m 0,0 km/h (0 Bft) 100,00 %
20.12.2022 21:10 9,2 C 8,3 C 5,6 C 97 % 1010,9 hPa 0,0 l/m 0 min 2 min 0 W/m 6,4 km/h (2 Bft) 97,87 %
20.12.2022 21:12 9,2 C 8,3 C 5,6 C 97 % 1010,9 hPa 0,2 l/m 0 min 2 min 0 W/m 3,2 km/h (1 Bft) 97,87 %
20.12.2022 21:14 9,2 C 8,3 C 5,6 C 97 % 1010,9 hPa 0,0 l/m 0 min 2 min 0 W/m 3,2 km/h (1 Bft) 100,00 %
20.12.2022 21:16 9,2 C 8,3 C 5,6 C 97 % 1010,8 hPa 0,0 l/m 0 min 2 min 0 W/m 6,4 km/h (2 Bft) 100,00 %
20.12.2022 21:18 9,2 C 8,3 C 5,6 C 97 % 1010,8 hPa 0,0 l/m 0 min 2 min 0 W/m 6,4 km/h (2 Bft) 97,83 %
20.12.2022 21:20 9,2 C 8,3 C 5,6 C 97 % 1010,8 hPa 0,0 l/m 0 min 2 min 0 W/m 3,2 km/h (1 Bft) 97,87 %
20.12.2022 21:22 9,1 C 8,3 C 5,6 C 97 % 1010,8 hPa 0,0 l/m 0 min 2 min 0 W/m 3,2 km/h (1 Bft) 97,87 %
20.12.2022 21:24 9,1 C 8,3 C 5,6 C 97 % 1010,8 hPa 0,0 l/m 0 min 2 min 0 W/m 3,2 km/h (1 Bft) 97,87 %
20.12.2022 21:26 9,1 C 8,3 C 5,6 C 97 % 1010,9 hPa 0,0 l/m 0 min 2 min 0 W/m 6,4 km/h (2 Bft) 97,87 %
20.12.2022 21:28 9,1 C 8,3 C 5,6 C 97 % 1010,9 hPa 0,0 l/m 0 min 2 min 0 W/m 3,2 km/h (1 Bft) 95,74 %
20.12.2022 21:30 9,1 C 7,8 C 5,6 C 97 % 1010,9 hPa 0,0 l/m 0 min 2 min 0 W/m 0,0 km/h (0 Bft) 97,83 %
20.12.2022 21:32 9,1 C 7,8 C 5,6 C 97 % 1010,9 hPa 0,2 l/m 0 min 2 min 0 W/m 0,0 km/h (0 Bft) 97,87 %
20.12.2022 21:34 9,1 C 7,8 C 5,6 C 97 % 1010,9 hPa 0,0 l/m 0 min 2 min 0 W/m 0,0 km/h (0 Bft) 97,87 %
20.12.2022 21:36 9,1 C 7,8 C 5,6 C 98 % 1010,9 hPa 0,0 l/m 0 min 2 min 0 W/m 0,0 km/h (0 Bft) 97,87 %
20.12.2022 21:38 9,1 C 7,8 C 5,6 C 98 % 1010,8 hPa 0,0 l/m 0 min 2 min 0 W/m 0,0 km/h (0 Bft) 95,74 %
20.12.2022 21:40 9,0 C 7,8 C 5,6 C 98 % 1010,8 hPa 0,0 l/m 0 min 2 min 0 W/m 0,0 km/h (0 Bft) 97,87 %
20.12.2022 21:42 9,0 C 7,8 C 5,6 C 98 % 1010,8 hPa 0,0 l/m 0 min 2 min 0 W/m 0,0 km/h (0 Bft) 95,74 %
20.12.2022 21:44 9,0 C 7,8 C 5,6 C 98 % 1010,8 hPa 0,0 l/m 0 min 2 min 0 W/m 0,0 km/h (0 Bft) 97,83 %
20.12.2022 21:46 9,0 C 7,8 C 5,6 C 98 % 1010,7 hPa 0,0 l/m 0 min 0 min 0 W/m 0,0 km/h (0 Bft) 97,87 %
20.12.2022 21:48 9,0 C 7,8 C 5,6 C 98 % 1010,7 hPa 0,2 l/m 0 min 0 min 0 W/m 0,0 km/h (0 Bft) 93,62 %
20.12.2022 21:50 9,0 C 8,3 C 5,6 C 98 % 1010,7 hPa 0,0 l/m 0 min 0 min 0 W/m 6,4 km/h (2 Bft) 97,87 %
20.12.2022 21:52 9,0 C 8,3 C 5,6 C 98 % 1010,8 hPa 0,0 l/m 0 min 0 min 0 W/m 3,2 km/h (1 Bft) 93,62 %
20.12.2022 21:54 9,0 C 8,3 C 5,6 C 98 % 1010,7 hPa 0,0 l/m 0 min 0 min 0 W/m 0,0 km/h (0 Bft) 95,74 %
20.12.2022 21:56 9,0 C 8,3 C 5,6 C 98 % 1010,8 hPa 0,0 l/m 0 min 0 min 0 W/m 0,0 km/h (0 Bft) 95,65 %
20.12.2022 21:58 9,0 C 8,3 C 5,6 C 98 % 1010,7 hPa 0,0 l/m 0 min 2 min 0 W/m 0,0 km/h (0 Bft) 95,74 %
20.12.2022 22:00 9,0 C 8,3 C 5,6 C 98 % 1010,8 hPa 0,0 l/m 0 min 2 min 0 W/m 0,0 km/h (0 Bft) 95,74 %
20.12.2022 22:02 9,0 C 8,3 C 5,6 C 98 % 1010,7 hPa 0,0 l/m 0 min 0 min 0 W/m 0,0 km/h (0 Bft) 95,74 %
20.12.2022 22:04 9,1 C 8,3 C 5,6 C 98 % 1010,7 hPa 0,0 l/m 0 min 0 min 0 W/m 0,0 km/h (0 Bft) 97,87 %
20.12.2022 22:06 9,1 C 8,3 C 6,1 C 98 % 1010,8 hPa 0,0 l/m 0 min 0 min 0 W/m 0,0 km/h (0 Bft) 97,87 %
20.12.2022 22:08 9,1 C 8,3 C 6,1 C 98 % 1010,7 hPa 0,0 l/m 0 min 0 min 0 W/m 0,0 km/h (0 Bft) 97,83 %
20.12.2022 22:10 9,2 C 8,3 C 6,1 C 98 % 1010,8 hPa 0,0 l/m 0 min 2 min 0 W/m 0,0 km/h (0 Bft) 97,87 %
20.12.2022 22:12 9,2 C 8,3 C 6,1 C 98 % 1010,7 hPa 0,0 l/m 0 min 2 min 0 W/m 9,7 km/h (2 Bft) 97,87 %
20.12.2022 22:14 9,2 C 8,3 C 6,1 C 98 % 1010,7 hPa 0,0 l/m 0 min 2 min 0 W/m 3,2 km/h (1 Bft) 95,74 %
20.12.2022 22:16 9,3 C 8,3 C 6,1 C 98 % 1010,7 hPa 0,0 l/m 0 min 2 min 0 W/m 0,0 km/h (0 Bft) 97,87 %
20.12.2022 22:18 9,3 C 8,3 C 6,1 C 98 % 1010,7 hPa 0,0 l/m 0 min 2 min 0 W/m 6,4 km/h (2 Bft) 97,87 %
20.12.2022 22:20 9,3 C 8,3 C 6,1 C 98 % 1010,7 hPa 0,0 l/m 0 min 2 min 0 W/m 3,2 km/h (1 Bft) 97,87 %
20.12.2022 22:22 9,3 C 8,3 C 6,1 C 98 % 1010,7 hPa 0,2 l/m 0 min 2 min 0 W/m 9,7 km/h (2 Bft) 97,83 %
20.12.2022 22:24 9,4 C 8,3 C 6,1 C 98 % 1010,7 hPa 0,0 l/m 0 min 2 min 0 W/m 6,4 km/h (2 Bft) 97,87 %
20.12.2022 22:26 9,4 C 8,9 C 6,1 C 98 % 1010,7 hPa 0,0 l/m 0 min 2 min 0 W/m 6,4 km/h (2 Bft) 100,00 %
20.12.2022 22:28 9,4 C 8,9 C 6,1 C 98 % 1010,7 hPa 0,0 l/m 0 min 2 min 0 W/m 9,7 km/h (2 Bft) 100,00 %
20.12.2022 22:30 9,5 C 8,9 C 6,7 C 98 % 1010,7 hPa 0,0 l/m 0 min 2 min 0 W/m 9,7 km/h (2 Bft) 100,00 %
20.12.2022 22:32 9,6 C 8,9 C 6,7 C 98 % 1010,8 hPa 0,0 l/m 0 min 2 min 0 W/m 3,2 km/h (1 Bft) 100,00 %
20.12.2022 22:34 9,6 C 8,9 C 6,1 C 98 % 1010,8 hPa 0,0 l/m 0 min 2 min 0 W/m 3,2 km/h (1 Bft) 100,00 %
20.12.2022 22:36 9,6 C 8,9 C 6,1 C 98 % 1010,8 hPa 0,0 l/m 0 min 2 min 0 W/m 6,4 km/h (2 Bft) 100,00 %
20.12.2022 22:38 9,6 C 8,9 C 6,1 C 98 % 1010,7 hPa 0,0 l/m 0 min 2 min 0 W/m 3,2 km/h (1 Bft) 100,00 %
20.12.2022 22:40 9,6 C 8,9 C 6,1 C 98 % 1010,8 hPa 0,0 l/m 0 min 2 min 0 W/m 3,2 km/h (1 Bft) 100,00 %
20.12.2022 22:42 9,6 C 8,9 C 6,1 C 98 % 1010,7 hPa 0,0 l/m 0 min 2 min 0 W/m 0,0 km/h (0 Bft) 97,87 %
20.12.2022 22:44 9,6 C 8,9 C 6,1 C 98 % 1010,7 hPa 0,0 l/m 0 min 2 min 0 W/m 3,2 km/h (1 Bft) 100,00 %
20.12.2022 22:46 9,6 C 8,9 C 6,1 C 98 % 1010,7 hPa 0,2 l/m 0 min 2 min 0 W/m 3,2 km/h (1 Bft) 100,00 %
20.12.2022 22:48 9,6 C 8,9 C 6,1 C 98 % 1010,7 hPa 0,0 l/m 0 min 2 min 0 W/m 3,2 km/h (1 Bft) 97,83 %
20.12.2022 22:50 9,6 C 8,9 C 6,7 C 98 % 1010,7 hPa 0,0 l/m 0 min 2 min 0 W/m 9,7 km/h (2 Bft) 100,00 %
20.12.2022 22:52 9,6 C 8,9 C 6,1 C 98 % 1010,7 hPa 0,0 l/m 0 min 2 min 0 W/m 0,0 km/h (0 Bft) 100,00 %
20.12.2022 22:54 9,6 C 8,9 C 6,1 C 98 % 1010,7 hPa 0,0 l/m 0 min 2 min 0 W/m 3,2 km/h (1 Bft) 100,00 %
20.12.2022 22:56 9,6 C 8,9 C 6,1 C 98 % 1010,6 hPa 0,0 l/m 0 min 2 min 0 W/m 0,0 km/h (0 Bft) 97,87 %
20.12.2022 22:58 9,6 C 8,9 C 6,7 C 98 % 1010,6 hPa 0,0 l/m 0 min 2 min 0 W/m 0,0 km/h (0 Bft) 95,74 %
20.12.2022 23:00 9,6 C 8,9 C 6,1 C 98 % 1010,6 hPa 0,2 l/m 0 min 2 min 0 W/m 6,4 km/h (2 Bft) 95,65 %
20.12.2022 23:02 9,6 C 8,9 C 6,1 C 98 % 1010,7 hPa 0,0 l/m 0 min 2 min 0 W/m 6,4 km/h (2 Bft) 97,87 %
20.12.2022 23:04 9,6 C 8,9 C 6,1 C 98 % 1010,6 hPa 0,0 l/m 0 min 2 min 0 W/m 3,2 km/h (1 Bft) 97,87 %
20.12.2022 23:06 9,6 C 8,9 C 6,1 C 98 % 1010,7 hPa 0,0 l/m 0 min 2 min 0 W/m 6,4 km/h (2 Bft) 97,87 %
20.12.2022 23:08 9,6 C 8,9 C 6,1 C 98 % 1010,7 hPa 0,0 l/m 0 min 2 min 0 W/m 3,2 km/h (1 Bft) 97,87 %
20.12.2022 23:10 9,6 C 8,9 C 6,1 C 98 % 1010,7 hPa 0,0 l/m 0 min 2 min 0 W/m 0,0 km/h (0 Bft) 97,87 %
20.12.2022 23:12 9,6 C 8,9 C 6,1 C 98 % 1010,7 hPa 0,0 l/m 0 min 2 min 0 W/m 3,2 km/h (1 Bft) 95,65 %
20.12.2022 23:14 9,6 C 8,9 C 6,1 C 98 % 1010,7 hPa 0,0 l/m 0 min 2 min 0 W/m 3,2 km/h (1 Bft) 95,74 %
20.12.2022 23:16 9,6 C 8,9 C 6,1 C 99 % 1010,6 hPa 0,0 l/m 0 min 2 min 0 W/m 3,2 km/h (1 Bft) 93,62 %
20.12.2022 23:18 9,6 C 8,9 C 6,1 C 99 % 1010,6 hPa 0,0 l/m 0 min 2 min 0 W/m 3,2 km/h (1 Bft) 97,87 %
20.12.2022 23:20 9,6 C 8,9 C 6,1 C 99 % 1010,6 hPa 0,0 l/m 0 min 2 min 0 W/m 3,2 km/h (1 Bft) 97,87 %
20.12.2022 23:22 9,6 C 8,9 C 6,1 C 99 % 1010,6 hPa 0,0 l/m 0 min 2 min 0 W/m 0,0 km/h (0 Bft) 95,74 %
20.12.2022 23:24 9,6 C 8,9 C 6,1 C 99 % 1010,6 hPa 0,0 l/m 0 min 2 min 0 W/m 3,2 km/h (1 Bft) 95,74 %
20.12.2022 23:26 9,6 C 8,9 C 6,1 C 99 % 1010,5 hPa 0,0 l/m 0 min 2 min 0 W/m 0,0 km/h (0 Bft) 95,65 %
20.12.2022 23:28 9,6 C 8,9 C 6,1 C 99 % 1010,5 hPa 0,0 l/m 0 min 2 min 0 W/m 6,4 km/h (2 Bft) 97,87 %
20.12.2022 23:30 9,6 C 8,9 C 6,1 C 99 % 1010,5 hPa 0,0 l/m 0 min 0 min 0 W/m 3,2 km/h (1 Bft) 93,62 %
20.12.2022 23:32 9,6 C 8,9 C 6,1 C 99 % 1010,6 hPa 0,0 l/m 0 min 2 min 0 W/m 6,4 km/h (2 Bft) 95,74 %
20.12.2022 23:34 9,6 C 8,9 C 6,1 C 99 % 1010,6 hPa 0,0 l/m 0 min 0 min 0 W/m 0,0 km/h (0 Bft) 97,87 %
20.12.2022 23:36 9,6 C 8,9 C 6,1 C 99 % 1010,6 hPa 0,0 l/m 0 min 0 min 0 W/m 0,0 km/h (0 Bft) 97,87 %
20.12.2022 23:38 9,6 C 8,9 C 6,1 C 99 % 1010,6 hPa 0,0 l/m 0 min 0 min 0 W/m 6,4 km/h (2 Bft) 97,83 %
20.12.2022 23:40 9,6 C 8,9 C 6,1 C 99 % 1010,7 hPa 0,0 l/m 0 min 2 min 0 W/m 0,0 km/h (0 Bft) 97,87 %
20.12.2022 23:42 9,6 C 8,9 C 6,1 C 99 % 1010,7 hPa 0,0 l/m 0 min 2 min 0 W/m 0,0 km/h (0 Bft) 95,74 %
20.12.2022 23:44 9,6 C 8,9 C 6,7 C 99 % 1010,8 hPa 0,0 l/m 0 min 0 min 0 W/m 0,0 km/h (0 Bft) 93,62 %
20.12.2022 23:46 9,6 C 8,9 C 6,1 C 99 % 1010,8 hPa 0,0 l/m 0 min 0 min 0 W/m 0,0 km/h (0 Bft) 97,87 %
20.12.2022 23:48 9,6 C 8,9 C 6,1 C 99 % 1010,8 hPa 0,0 l/m 0 min 0 min 0 W/m 0,0 km/h (0 Bft) 100,00 %
20.12.2022 23:50 9,6 C 8,9 C 6,1 C 99 % 1010,8 hPa 0,0 l/m 0 min 0 min 0 W/m 0,0 km/h (0 Bft) 95,65 %
20.12.2022 23:52 9,6 C 8,9 C 6,1 C 99 % 1010,8 hPa 0,0 l/m 0 min 0 min 0 W/m 0,0 km/h (0 Bft) 95,74 %
20.12.2022 23:54 9,6 C 8,9 C 6,1 C 99 % 1010,7 hPa 0,0 l/m 0 min 0 min 0 W/m 0,0 km/h (0 Bft) 95,74 %
20.12.2022 23:56 9,6 C 8,9 C 6,1 C 99 % 1010,7 hPa 0,0 l/m 0 min 2 min 0 W/m 0,0 km/h (0 Bft) 93,62 %
20.12.2022 23:58 9,6 C 8,3 C 6,1 C 99 % 1010,7 hPa 0,2 l/m 0 min 2 min 0 W/m 0,0 km/h (0 Bft) 91,49 %
_ Min-Zeit 06:00 05:16 04:54 01:16 23:26 - - - - 15:52 12:42
Minimum _ 8,7 C 7,8 C 3,9 C 86 % 1010,5 hPa - - - - 0,0 km/h (0 Bft) 33,33 %
_ Max-Zeit 13:34 13:26 13:26 23:16 00:00 03:56 00:00 18:08 13:50 13:28 00:22
Maximum _ 11,8 C 11,7 C 7,2 C 99 % 1016,4 hPa 0,2 l/m 0 min 4 min 79 W/m 57,9 km/h
S (7 Bft)
100,00 %
Durchschnitt _ 9,7 C 8,9 C 5,4 C 94 % 1012,8 hPa #6,8 l/m #0 min. #10:22 h 30 W/m 10,6 km/h (2 Bft) 97,10 %
© 2022 W. Hausmann